<?xml version="1.0" encoding="utf-8"?>
<gpx xmlns:xsi="http://www.w3.org/2001/XMLSchema-instance" xmlns:xsd="http://www.w3.org/2001/XMLSchema" version="1.1" creator="Shapelink.com" xmlns="http://www.topografix.com/GPX/1/1" xmlns:gpxtpx="http://www.garmin.com/xmlschemas/TrackPointExtension/v1">
  <metadata>
    <name>Ejecutar 5.39 km, 2020-01-28</name>
    <desc></desc>
    <author><name>Peter Littke</name></author> 
    <time>2020-01-28T06:27:45Z</time>
  </metadata>
  <trk>
    <name>Ejecutar 5.39 km, 2020-01-28</name>
    <trkseg>
      <trkpt lat="59.299104" lon="18.081582">
        <ele>46</ele>
        <time>2020-01-28T06:27:45Z</time>
      </trkpt>
      <trkpt lat="59.29911" lon="18.081716">
        <ele>46</ele>
        <time>2020-01-28T06:27:49Z</time>
      </trkpt>
      <trkpt lat="59.299155" lon="18.081875">
        <ele>48</ele>
        <time>2020-01-28T06:27:53Z</time>
      </trkpt>
      <trkpt lat="59.299162" lon="18.082055">
        <ele>48</ele>
        <time>2020-01-28T06:27:56Z</time>
      </trkpt>
      <trkpt lat="59.299099" lon="18.082219">
        <ele>47</ele>
        <time>2020-01-28T06:28:00Z</time>
      </trkpt>
      <trkpt lat="59.299041" lon="18.082255">
        <ele>47</ele>
        <time>2020-01-28T06:28:03Z</time>
      </trkpt>
      <trkpt lat="59.29901" lon="18.082275">
        <ele>46</ele>
        <time>2020-01-28T06:28:04Z</time>
      </trkpt>
      <trkpt lat="59.298979" lon="18.08229">
        <ele>46</ele>
        <time>2020-01-28T06:28:05Z</time>
      </trkpt>
      <trkpt lat="59.298948" lon="18.082309">
        <ele>46</ele>
        <time>2020-01-28T06:28:06Z</time>
      </trkpt>
      <trkpt lat="59.298923" lon="18.08234">
        <ele>46</ele>
        <time>2020-01-28T06:28:07Z</time>
      </trkpt>
      <trkpt lat="59.298895" lon="18.082369">
        <ele>46</ele>
        <time>2020-01-28T06:28:07Z</time>
      </trkpt>
      <trkpt lat="59.298871" lon="18.082395">
        <ele>46</ele>
        <time>2020-01-28T06:28:08Z</time>
      </trkpt>
      <trkpt lat="59.298848" lon="18.082415">
        <ele>46</ele>
        <time>2020-01-28T06:28:10Z</time>
      </trkpt>
      <trkpt lat="59.298826" lon="18.082436">
        <ele>46</ele>
        <time>2020-01-28T06:28:10Z</time>
      </trkpt>
      <trkpt lat="59.298805" lon="18.082454">
        <ele>47</ele>
        <time>2020-01-28T06:28:11Z</time>
      </trkpt>
      <trkpt lat="59.298788" lon="18.082466">
        <ele>47</ele>
        <time>2020-01-28T06:28:12Z</time>
      </trkpt>
      <trkpt lat="59.298763" lon="18.082461">
        <ele>47</ele>
        <time>2020-01-28T06:28:15Z</time>
      </trkpt>
      <trkpt lat="59.298777" lon="18.082436">
        <ele>48</ele>
        <time>2020-01-28T06:28:15Z</time>
      </trkpt>
      <trkpt lat="59.298792" lon="18.082386">
        <ele>48</ele>
        <time>2020-01-28T06:28:18Z</time>
      </trkpt>
      <trkpt lat="59.298804" lon="18.082358">
        <ele>48</ele>
        <time>2020-01-28T06:28:18Z</time>
      </trkpt>
      <trkpt lat="59.298825" lon="18.082347">
        <ele>48</ele>
        <time>2020-01-28T06:28:19Z</time>
      </trkpt>
      <trkpt lat="59.298845" lon="18.082326">
        <ele>49</ele>
        <time>2020-01-28T06:28:21Z</time>
      </trkpt>
      <trkpt lat="59.29891" lon="18.082262">
        <ele>49</ele>
        <time>2020-01-28T06:28:24Z</time>
      </trkpt>
      <trkpt lat="59.29893" lon="18.082238">
        <ele>49</ele>
        <time>2020-01-28T06:28:24Z</time>
      </trkpt>
      <trkpt lat="59.298953" lon="18.082216">
        <ele>49</ele>
        <time>2020-01-28T06:28:26Z</time>
      </trkpt>
      <trkpt lat="59.29898" lon="18.082197">
        <ele>49</ele>
        <time>2020-01-28T06:28:27Z</time>
      </trkpt>
      <trkpt lat="59.299001" lon="18.082179">
        <ele>49</ele>
        <time>2020-01-28T06:28:27Z</time>
      </trkpt>
      <trkpt lat="59.299029" lon="18.082159">
        <ele>49</ele>
        <time>2020-01-28T06:28:29Z</time>
      </trkpt>
      <trkpt lat="59.299055" lon="18.082153">
        <ele>49</ele>
        <time>2020-01-28T06:28:29Z</time>
      </trkpt>
      <trkpt lat="59.299152" lon="18.082169">
        <ele>49</ele>
        <time>2020-01-28T06:28:35Z</time>
      </trkpt>
      <trkpt lat="59.299267" lon="18.08224">
        <ele>48</ele>
        <time>2020-01-28T06:28:40Z</time>
      </trkpt>
      <trkpt lat="59.299313" lon="18.082254">
        <ele>48</ele>
        <time>2020-01-28T06:28:40Z</time>
      </trkpt>
      <trkpt lat="59.299357" lon="18.082269">
        <ele>49</ele>
        <time>2020-01-28T06:28:41Z</time>
      </trkpt>
      <trkpt lat="59.299455" lon="18.082263">
        <ele>49</ele>
        <time>2020-01-28T06:28:44Z</time>
      </trkpt>
      <trkpt lat="59.299553" lon="18.082203">
        <ele>49</ele>
        <time>2020-01-28T06:28:47Z</time>
      </trkpt>
      <trkpt lat="59.299579" lon="18.082176">
        <ele>49</ele>
        <time>2020-01-28T06:28:48Z</time>
      </trkpt>
      <trkpt lat="59.29962" lon="18.08216">
        <ele>49</ele>
        <time>2020-01-28T06:28:49Z</time>
      </trkpt>
      <trkpt lat="59.299707" lon="18.082082">
        <ele>49</ele>
        <time>2020-01-28T06:28:52Z</time>
      </trkpt>
      <trkpt lat="59.299799" lon="18.082014">
        <ele>48</ele>
        <time>2020-01-28T06:28:56Z</time>
      </trkpt>
      <trkpt lat="59.299828" lon="18.082004">
        <ele>48</ele>
        <time>2020-01-28T06:28:58Z</time>
      </trkpt>
      <trkpt lat="59.299852" lon="18.081994">
        <ele>48</ele>
        <time>2020-01-28T06:28:58Z</time>
      </trkpt>
      <trkpt lat="59.299876" lon="18.081977">
        <ele>48</ele>
        <time>2020-01-28T06:29:00Z</time>
      </trkpt>
      <trkpt lat="59.299901" lon="18.081968">
        <ele>48</ele>
        <time>2020-01-28T06:29:01Z</time>
      </trkpt>
      <trkpt lat="59.299921" lon="18.081942">
        <ele>48</ele>
        <time>2020-01-28T06:29:02Z</time>
      </trkpt>
      <trkpt lat="59.299942" lon="18.081917">
        <ele>48</ele>
        <time>2020-01-28T06:29:02Z</time>
      </trkpt>
      <trkpt lat="59.299966" lon="18.081892">
        <ele>48</ele>
        <time>2020-01-28T06:29:04Z</time>
      </trkpt>
      <trkpt lat="59.299983" lon="18.081872">
        <ele>48</ele>
        <time>2020-01-28T06:29:04Z</time>
      </trkpt>
      <trkpt lat="59.300006" lon="18.081846">
        <ele>48</ele>
        <time>2020-01-28T06:29:05Z</time>
      </trkpt>
      <trkpt lat="59.300027" lon="18.081819">
        <ele>48</ele>
        <time>2020-01-28T06:29:07Z</time>
      </trkpt>
      <trkpt lat="59.300053" lon="18.081796">
        <ele>48</ele>
        <time>2020-01-28T06:29:07Z</time>
      </trkpt>
      <trkpt lat="59.300077" lon="18.08178">
        <ele>47</ele>
        <time>2020-01-28T06:29:09Z</time>
      </trkpt>
      <trkpt lat="59.300106" lon="18.081768">
        <ele>47</ele>
        <time>2020-01-28T06:29:09Z</time>
      </trkpt>
      <trkpt lat="59.300132" lon="18.081749">
        <ele>47</ele>
        <time>2020-01-28T06:29:10Z</time>
      </trkpt>
      <trkpt lat="59.30016" lon="18.081741">
        <ele>47</ele>
        <time>2020-01-28T06:29:12Z</time>
      </trkpt>
      <trkpt lat="59.300189" lon="18.081732">
        <ele>47</ele>
        <time>2020-01-28T06:29:12Z</time>
      </trkpt>
      <trkpt lat="59.30022" lon="18.081717">
        <ele>47</ele>
        <time>2020-01-28T06:29:13Z</time>
      </trkpt>
      <trkpt lat="59.300248" lon="18.081704">
        <ele>47</ele>
        <time>2020-01-28T06:29:15Z</time>
      </trkpt>
      <trkpt lat="59.300274" lon="18.081693">
        <ele>47</ele>
        <time>2020-01-28T06:29:15Z</time>
      </trkpt>
      <trkpt lat="59.300301" lon="18.081685">
        <ele>47</ele>
        <time>2020-01-28T06:29:16Z</time>
      </trkpt>
      <trkpt lat="59.300325" lon="18.081669">
        <ele>47</ele>
        <time>2020-01-28T06:29:18Z</time>
      </trkpt>
      <trkpt lat="59.300351" lon="18.081653">
        <ele>47</ele>
        <time>2020-01-28T06:29:19Z</time>
      </trkpt>
      <trkpt lat="59.300378" lon="18.081636">
        <ele>47</ele>
        <time>2020-01-28T06:29:19Z</time>
      </trkpt>
      <trkpt lat="59.300406" lon="18.081612">
        <ele>47</ele>
        <time>2020-01-28T06:29:21Z</time>
      </trkpt>
      <trkpt lat="59.300443" lon="18.08159">
        <ele>47</ele>
        <time>2020-01-28T06:29:21Z</time>
      </trkpt>
      <trkpt lat="59.300466" lon="18.081569">
        <ele>47</ele>
        <time>2020-01-28T06:29:23Z</time>
      </trkpt>
      <trkpt lat="59.300494" lon="18.081551">
        <ele>47</ele>
        <time>2020-01-28T06:29:23Z</time>
      </trkpt>
      <trkpt lat="59.300521" lon="18.08153">
        <ele>47</ele>
        <time>2020-01-28T06:29:24Z</time>
      </trkpt>
      <trkpt lat="59.300548" lon="18.081514">
        <ele>47</ele>
        <time>2020-01-28T06:29:26Z</time>
      </trkpt>
      <trkpt lat="59.300579" lon="18.081498">
        <ele>47</ele>
        <time>2020-01-28T06:29:27Z</time>
      </trkpt>
      <trkpt lat="59.300611" lon="18.081481">
        <ele>47</ele>
        <time>2020-01-28T06:29:27Z</time>
      </trkpt>
      <trkpt lat="59.30071" lon="18.081409">
        <ele>47</ele>
        <time>2020-01-28T06:29:31Z</time>
      </trkpt>
      <trkpt lat="59.300803" lon="18.081336">
        <ele>47</ele>
        <time>2020-01-28T06:29:35Z</time>
      </trkpt>
      <trkpt lat="59.300907" lon="18.081239">
        <ele>47</ele>
        <time>2020-01-28T06:29:38Z</time>
      </trkpt>
      <trkpt lat="59.300988" lon="18.081169">
        <ele>47</ele>
        <time>2020-01-28T06:29:42Z</time>
      </trkpt>
      <trkpt lat="59.301018" lon="18.081143">
        <ele>47</ele>
        <time>2020-01-28T06:29:42Z</time>
      </trkpt>
      <trkpt lat="59.301045" lon="18.081113">
        <ele>47</ele>
        <time>2020-01-28T06:29:43Z</time>
      </trkpt>
      <trkpt lat="59.301075" lon="18.081087">
        <ele>47</ele>
        <time>2020-01-28T06:29:45Z</time>
      </trkpt>
      <trkpt lat="59.301125" lon="18.081017">
        <ele>47</ele>
        <time>2020-01-28T06:29:47Z</time>
      </trkpt>
      <trkpt lat="59.301155" lon="18.080977">
        <ele>47</ele>
        <time>2020-01-28T06:29:47Z</time>
      </trkpt>
      <trkpt lat="59.301181" lon="18.080943">
        <ele>47</ele>
        <time>2020-01-28T06:29:48Z</time>
      </trkpt>
      <trkpt lat="59.301203" lon="18.080916">
        <ele>46</ele>
        <time>2020-01-28T06:29:50Z</time>
      </trkpt>
      <trkpt lat="59.301227" lon="18.080893">
        <ele>46</ele>
        <time>2020-01-28T06:29:50Z</time>
      </trkpt>
      <trkpt lat="59.301248" lon="18.080862">
        <ele>46</ele>
        <time>2020-01-28T06:29:51Z</time>
      </trkpt>
      <trkpt lat="59.301271" lon="18.080836">
        <ele>46</ele>
        <time>2020-01-28T06:29:53Z</time>
      </trkpt>
      <trkpt lat="59.301293" lon="18.080807">
        <ele>46</ele>
        <time>2020-01-28T06:29:53Z</time>
      </trkpt>
      <trkpt lat="59.301312" lon="18.080783">
        <ele>45</ele>
        <time>2020-01-28T06:29:54Z</time>
      </trkpt>
      <trkpt lat="59.301334" lon="18.080763">
        <ele>45</ele>
        <time>2020-01-28T06:29:56Z</time>
      </trkpt>
      <trkpt lat="59.301418" lon="18.080673">
        <ele>44</ele>
        <time>2020-01-28T06:29:59Z</time>
      </trkpt>
      <trkpt lat="59.301509" lon="18.080584">
        <ele>44</ele>
        <time>2020-01-28T06:30:04Z</time>
      </trkpt>
      <trkpt lat="59.301555" lon="18.08055">
        <ele>44</ele>
        <time>2020-01-28T06:30:05Z</time>
      </trkpt>
      <trkpt lat="59.301616" lon="18.080512">
        <ele>44</ele>
        <time>2020-01-28T06:30:07Z</time>
      </trkpt>
      <trkpt lat="59.301644" lon="18.080493">
        <ele>44</ele>
        <time>2020-01-28T06:30:09Z</time>
      </trkpt>
      <trkpt lat="59.301666" lon="18.080471">
        <ele>44</ele>
        <time>2020-01-28T06:30:09Z</time>
      </trkpt>
      <trkpt lat="59.301691" lon="18.080442">
        <ele>45</ele>
        <time>2020-01-28T06:30:10Z</time>
      </trkpt>
      <trkpt lat="59.301716" lon="18.08042">
        <ele>45</ele>
        <time>2020-01-28T06:30:12Z</time>
      </trkpt>
      <trkpt lat="59.301739" lon="18.080397">
        <ele>45</ele>
        <time>2020-01-28T06:30:12Z</time>
      </trkpt>
      <trkpt lat="59.301787" lon="18.080358">
        <ele>45</ele>
        <time>2020-01-28T06:30:15Z</time>
      </trkpt>
      <trkpt lat="59.301809" lon="18.080338">
        <ele>46</ele>
        <time>2020-01-28T06:30:15Z</time>
      </trkpt>
      <trkpt lat="59.30183" lon="18.080326">
        <ele>46</ele>
        <time>2020-01-28T06:30:16Z</time>
      </trkpt>
      <trkpt lat="59.301872" lon="18.080292">
        <ele>46</ele>
        <time>2020-01-28T06:30:18Z</time>
      </trkpt>
      <trkpt lat="59.301896" lon="18.080277">
        <ele>46</ele>
        <time>2020-01-28T06:30:20Z</time>
      </trkpt>
      <trkpt lat="59.301921" lon="18.080255">
        <ele>46</ele>
        <time>2020-01-28T06:30:20Z</time>
      </trkpt>
      <trkpt lat="59.301945" lon="18.080247">
        <ele>46</ele>
        <time>2020-01-28T06:30:21Z</time>
      </trkpt>
      <trkpt lat="59.302048" lon="18.080191">
        <ele>46</ele>
        <time>2020-01-28T06:30:26Z</time>
      </trkpt>
      <trkpt lat="59.302155" lon="18.080136">
        <ele>46</ele>
        <time>2020-01-28T06:30:29Z</time>
      </trkpt>
      <trkpt lat="59.302262" lon="18.08007">
        <ele>46</ele>
        <time>2020-01-28T06:30:33Z</time>
      </trkpt>
      <trkpt lat="59.302364" lon="18.080009">
        <ele>46</ele>
        <time>2020-01-28T06:30:37Z</time>
      </trkpt>
      <trkpt lat="59.302466" lon="18.079939">
        <ele>46</ele>
        <time>2020-01-28T06:30:42Z</time>
      </trkpt>
      <trkpt lat="59.302525" lon="18.079914">
        <ele>46</ele>
        <time>2020-01-28T06:30:43Z</time>
      </trkpt>
      <trkpt lat="59.302562" lon="18.079913">
        <ele>45</ele>
        <time>2020-01-28T06:30:44Z</time>
      </trkpt>
      <trkpt lat="59.302592" lon="18.079899">
        <ele>45</ele>
        <time>2020-01-28T06:30:45Z</time>
      </trkpt>
      <trkpt lat="59.302615" lon="18.079883">
        <ele>45</ele>
        <time>2020-01-28T06:30:47Z</time>
      </trkpt>
      <trkpt lat="59.302638" lon="18.079864">
        <ele>45</ele>
        <time>2020-01-28T06:30:47Z</time>
      </trkpt>
      <trkpt lat="59.30266" lon="18.079847">
        <ele>45</ele>
        <time>2020-01-28T06:30:48Z</time>
      </trkpt>
      <trkpt lat="59.302681" lon="18.07983">
        <ele>45</ele>
        <time>2020-01-28T06:30:50Z</time>
      </trkpt>
      <trkpt lat="59.302705" lon="18.079813">
        <ele>45</ele>
        <time>2020-01-28T06:30:50Z</time>
      </trkpt>
      <trkpt lat="59.302725" lon="18.079798">
        <ele>45</ele>
        <time>2020-01-28T06:30:51Z</time>
      </trkpt>
      <trkpt lat="59.302824" lon="18.079733">
        <ele>45</ele>
        <time>2020-01-28T06:30:56Z</time>
      </trkpt>
      <trkpt lat="59.302851" lon="18.079718">
        <ele>45</ele>
        <time>2020-01-28T06:30:56Z</time>
      </trkpt>
      <trkpt lat="59.302954" lon="18.079657">
        <ele>45</ele>
        <time>2020-01-28T06:31:01Z</time>
      </trkpt>
      <trkpt lat="59.303055" lon="18.079593">
        <ele>45</ele>
        <time>2020-01-28T06:31:04Z</time>
      </trkpt>
      <trkpt lat="59.303154" lon="18.079534">
        <ele>45</ele>
        <time>2020-01-28T06:31:09Z</time>
      </trkpt>
      <trkpt lat="59.30326" lon="18.079455">
        <ele>44</ele>
        <time>2020-01-28T06:31:12Z</time>
      </trkpt>
      <trkpt lat="59.303359" lon="18.07939">
        <ele>44</ele>
        <time>2020-01-28T06:31:16Z</time>
      </trkpt>
      <trkpt lat="59.303463" lon="18.079334">
        <ele>44</ele>
        <time>2020-01-28T06:31:20Z</time>
      </trkpt>
      <trkpt lat="59.303493" lon="18.079317">
        <ele>44</ele>
        <time>2020-01-28T06:31:21Z</time>
      </trkpt>
      <trkpt lat="59.303522" lon="18.079299">
        <ele>44</ele>
        <time>2020-01-28T06:31:23Z</time>
      </trkpt>
      <trkpt lat="59.303545" lon="18.079281">
        <ele>44</ele>
        <time>2020-01-28T06:31:23Z</time>
      </trkpt>
      <trkpt lat="59.303571" lon="18.079268">
        <ele>44</ele>
        <time>2020-01-28T06:31:25Z</time>
      </trkpt>
      <trkpt lat="59.303597" lon="18.079256">
        <ele>44</ele>
        <time>2020-01-28T06:31:25Z</time>
      </trkpt>
      <trkpt lat="59.303625" lon="18.079242">
        <ele>44</ele>
        <time>2020-01-28T06:31:27Z</time>
      </trkpt>
      <trkpt lat="59.303647" lon="18.079231">
        <ele>44</ele>
        <time>2020-01-28T06:31:27Z</time>
      </trkpt>
      <trkpt lat="59.303669" lon="18.079216">
        <ele>44</ele>
        <time>2020-01-28T06:31:28Z</time>
      </trkpt>
      <trkpt lat="59.303694" lon="18.079197">
        <ele>44</ele>
        <time>2020-01-28T06:31:30Z</time>
      </trkpt>
      <trkpt lat="59.303716" lon="18.079182">
        <ele>44</ele>
        <time>2020-01-28T06:31:30Z</time>
      </trkpt>
      <trkpt lat="59.303741" lon="18.079166">
        <ele>44</ele>
        <time>2020-01-28T06:31:31Z</time>
      </trkpt>
      <trkpt lat="59.303766" lon="18.07915">
        <ele>44</ele>
        <time>2020-01-28T06:31:33Z</time>
      </trkpt>
      <trkpt lat="59.303795" lon="18.079134">
        <ele>44</ele>
        <time>2020-01-28T06:31:34Z</time>
      </trkpt>
      <trkpt lat="59.303819" lon="18.079122">
        <ele>44</ele>
        <time>2020-01-28T06:31:35Z</time>
      </trkpt>
      <trkpt lat="59.303841" lon="18.079107">
        <ele>43</ele>
        <time>2020-01-28T06:31:35Z</time>
      </trkpt>
      <trkpt lat="59.30387" lon="18.079099">
        <ele>43</ele>
        <time>2020-01-28T06:31:36Z</time>
      </trkpt>
      <trkpt lat="59.303898" lon="18.079084">
        <ele>43</ele>
        <time>2020-01-28T06:31:38Z</time>
      </trkpt>
      <trkpt lat="59.303924" lon="18.079072">
        <ele>43</ele>
        <time>2020-01-28T06:31:39Z</time>
      </trkpt>
      <trkpt lat="59.303951" lon="18.079054">
        <ele>43</ele>
        <time>2020-01-28T06:31:39Z</time>
      </trkpt>
      <trkpt lat="59.303978" lon="18.079033">
        <ele>42</ele>
        <time>2020-01-28T06:31:41Z</time>
      </trkpt>
      <trkpt lat="59.304003" lon="18.079015">
        <ele>42</ele>
        <time>2020-01-28T06:31:41Z</time>
      </trkpt>
      <trkpt lat="59.304029" lon="18.078998">
        <ele>42</ele>
        <time>2020-01-28T06:31:43Z</time>
      </trkpt>
      <trkpt lat="59.304056" lon="18.078983">
        <ele>42</ele>
        <time>2020-01-28T06:31:43Z</time>
      </trkpt>
      <trkpt lat="59.304083" lon="18.078966">
        <ele>42</ele>
        <time>2020-01-28T06:31:44Z</time>
      </trkpt>
      <trkpt lat="59.304107" lon="18.078952">
        <ele>41</ele>
        <time>2020-01-28T06:31:46Z</time>
      </trkpt>
      <trkpt lat="59.304132" lon="18.078934">
        <ele>42</ele>
        <time>2020-01-28T06:31:46Z</time>
      </trkpt>
      <trkpt lat="59.304156" lon="18.078917">
        <ele>42</ele>
        <time>2020-01-28T06:31:47Z</time>
      </trkpt>
      <trkpt lat="59.30418" lon="18.078906">
        <ele>42</ele>
        <time>2020-01-28T06:31:49Z</time>
      </trkpt>
      <trkpt lat="59.304202" lon="18.078892">
        <ele>42</ele>
        <time>2020-01-28T06:31:49Z</time>
      </trkpt>
      <trkpt lat="59.304229" lon="18.078874">
        <ele>42</ele>
        <time>2020-01-28T06:31:50Z</time>
      </trkpt>
      <trkpt lat="59.304254" lon="18.078859">
        <ele>42</ele>
        <time>2020-01-28T06:31:52Z</time>
      </trkpt>
      <trkpt lat="59.304282" lon="18.07884">
        <ele>41</ele>
        <time>2020-01-28T06:31:53Z</time>
      </trkpt>
      <trkpt lat="59.304313" lon="18.078822">
        <ele>41</ele>
        <time>2020-01-28T06:31:53Z</time>
      </trkpt>
      <trkpt lat="59.304341" lon="18.078809">
        <ele>41</ele>
        <time>2020-01-28T06:31:55Z</time>
      </trkpt>
      <trkpt lat="59.304372" lon="18.078791">
        <ele>41</ele>
        <time>2020-01-28T06:31:55Z</time>
      </trkpt>
      <trkpt lat="59.304478" lon="18.078712">
        <ele>41</ele>
        <time>2020-01-28T06:31:59Z</time>
      </trkpt>
      <trkpt lat="59.304578" lon="18.078654">
        <ele>41</ele>
        <time>2020-01-28T06:32:03Z</time>
      </trkpt>
      <trkpt lat="59.304662" lon="18.078589">
        <ele>41</ele>
        <time>2020-01-28T06:32:06Z</time>
      </trkpt>
      <trkpt lat="59.304771" lon="18.078524">
        <ele>40</ele>
        <time>2020-01-28T06:32:10Z</time>
      </trkpt>
      <trkpt lat="59.304838" lon="18.078483">
        <ele>40</ele>
        <time>2020-01-28T06:32:12Z</time>
      </trkpt>
      <trkpt lat="59.30487" lon="18.078469">
        <ele>40</ele>
        <time>2020-01-28T06:32:14Z</time>
      </trkpt>
      <trkpt lat="59.304974" lon="18.078398">
        <ele>40</ele>
        <time>2020-01-28T06:32:17Z</time>
      </trkpt>
      <trkpt lat="59.305062" lon="18.078345">
        <ele>40</ele>
        <time>2020-01-28T06:32:21Z</time>
      </trkpt>
      <trkpt lat="59.305093" lon="18.078339">
        <ele>40</ele>
        <time>2020-01-28T06:32:21Z</time>
      </trkpt>
      <trkpt lat="59.305118" lon="18.078318">
        <ele>39</ele>
        <time>2020-01-28T06:32:22Z</time>
      </trkpt>
      <trkpt lat="59.305144" lon="18.078299">
        <ele>39</ele>
        <time>2020-01-28T06:32:24Z</time>
      </trkpt>
      <trkpt lat="59.305173" lon="18.078286">
        <ele>39</ele>
        <time>2020-01-28T06:32:24Z</time>
      </trkpt>
      <trkpt lat="59.305198" lon="18.078272">
        <ele>39</ele>
        <time>2020-01-28T06:32:25Z</time>
      </trkpt>
      <trkpt lat="59.305226" lon="18.07825">
        <ele>39</ele>
        <time>2020-01-28T06:32:27Z</time>
      </trkpt>
      <trkpt lat="59.305253" lon="18.078233">
        <ele>39</ele>
        <time>2020-01-28T06:32:27Z</time>
      </trkpt>
      <trkpt lat="59.30528" lon="18.078211">
        <ele>39</ele>
        <time>2020-01-28T06:32:29Z</time>
      </trkpt>
      <trkpt lat="59.305308" lon="18.078199">
        <ele>39</ele>
        <time>2020-01-28T06:32:29Z</time>
      </trkpt>
      <trkpt lat="59.305335" lon="18.078186">
        <ele>39</ele>
        <time>2020-01-28T06:32:31Z</time>
      </trkpt>
      <trkpt lat="59.305362" lon="18.078166">
        <ele>39</ele>
        <time>2020-01-28T06:32:31Z</time>
      </trkpt>
      <trkpt lat="59.305386" lon="18.078147">
        <ele>39</ele>
        <time>2020-01-28T06:32:33Z</time>
      </trkpt>
      <trkpt lat="59.305412" lon="18.078128">
        <ele>38</ele>
        <time>2020-01-28T06:32:33Z</time>
      </trkpt>
      <trkpt lat="59.305434" lon="18.078111">
        <ele>38</ele>
        <time>2020-01-28T06:32:34Z</time>
      </trkpt>
      <trkpt lat="59.305454" lon="18.078095">
        <ele>38</ele>
        <time>2020-01-28T06:32:36Z</time>
      </trkpt>
      <trkpt lat="59.305476" lon="18.078079">
        <ele>38</ele>
        <time>2020-01-28T06:32:36Z</time>
      </trkpt>
      <trkpt lat="59.305503" lon="18.078062">
        <ele>38</ele>
        <time>2020-01-28T06:32:37Z</time>
      </trkpt>
      <trkpt lat="59.305527" lon="18.078046">
        <ele>38</ele>
        <time>2020-01-28T06:32:39Z</time>
      </trkpt>
      <trkpt lat="59.305554" lon="18.078025">
        <ele>38</ele>
        <time>2020-01-28T06:32:39Z</time>
      </trkpt>
      <trkpt lat="59.305583" lon="18.078002">
        <ele>38</ele>
        <time>2020-01-28T06:32:40Z</time>
      </trkpt>
      <trkpt lat="59.305608" lon="18.077982">
        <ele>38</ele>
        <time>2020-01-28T06:32:42Z</time>
      </trkpt>
      <trkpt lat="59.305633" lon="18.077961">
        <ele>38</ele>
        <time>2020-01-28T06:32:42Z</time>
      </trkpt>
      <trkpt lat="59.305656" lon="18.077938">
        <ele>38</ele>
        <time>2020-01-28T06:32:43Z</time>
      </trkpt>
      <trkpt lat="59.305679" lon="18.077918">
        <ele>38</ele>
        <time>2020-01-28T06:32:45Z</time>
      </trkpt>
      <trkpt lat="59.305706" lon="18.077901">
        <ele>38</ele>
        <time>2020-01-28T06:32:45Z</time>
      </trkpt>
      <trkpt lat="59.305729" lon="18.077889">
        <ele>38</ele>
        <time>2020-01-28T06:32:47Z</time>
      </trkpt>
      <trkpt lat="59.305756" lon="18.077872">
        <ele>38</ele>
        <time>2020-01-28T06:32:47Z</time>
      </trkpt>
      <trkpt lat="59.305782" lon="18.077858">
        <ele>38</ele>
        <time>2020-01-28T06:32:48Z</time>
      </trkpt>
      <trkpt lat="59.305809" lon="18.077839">
        <ele>38</ele>
        <time>2020-01-28T06:32:50Z</time>
      </trkpt>
      <trkpt lat="59.305836" lon="18.07782">
        <ele>38</ele>
        <time>2020-01-28T06:32:50Z</time>
      </trkpt>
      <trkpt lat="59.305863" lon="18.077804">
        <ele>38</ele>
        <time>2020-01-28T06:32:51Z</time>
      </trkpt>
      <trkpt lat="59.305887" lon="18.077789">
        <ele>38</ele>
        <time>2020-01-28T06:32:52Z</time>
      </trkpt>
      <trkpt lat="59.30591" lon="18.077773">
        <ele>38</ele>
        <time>2020-01-28T06:32:53Z</time>
      </trkpt>
      <trkpt lat="59.305935" lon="18.077755">
        <ele>38</ele>
        <time>2020-01-28T06:32:55Z</time>
      </trkpt>
      <trkpt lat="59.305956" lon="18.077743">
        <ele>38</ele>
        <time>2020-01-28T06:32:55Z</time>
      </trkpt>
      <trkpt lat="59.305983" lon="18.077722">
        <ele>38</ele>
        <time>2020-01-28T06:32:57Z</time>
      </trkpt>
      <trkpt lat="59.306008" lon="18.077708">
        <ele>38</ele>
        <time>2020-01-28T06:32:57Z</time>
      </trkpt>
      <trkpt lat="59.306034" lon="18.07769">
        <ele>38</ele>
        <time>2020-01-28T06:32:58Z</time>
      </trkpt>
      <trkpt lat="59.306058" lon="18.077674">
        <ele>38</ele>
        <time>2020-01-28T06:33:00Z</time>
      </trkpt>
      <trkpt lat="59.306083" lon="18.077651">
        <ele>38</ele>
        <time>2020-01-28T06:33:00Z</time>
      </trkpt>
      <trkpt lat="59.306108" lon="18.077633">
        <ele>38</ele>
        <time>2020-01-28T06:33:01Z</time>
      </trkpt>
      <trkpt lat="59.306135" lon="18.077615">
        <ele>38</ele>
        <time>2020-01-28T06:33:02Z</time>
      </trkpt>
      <trkpt lat="59.306169" lon="18.0776">
        <ele>38</ele>
        <time>2020-01-28T06:33:03Z</time>
      </trkpt>
      <trkpt lat="59.306198" lon="18.077587">
        <ele>38</ele>
        <time>2020-01-28T06:33:05Z</time>
      </trkpt>
      <trkpt lat="59.306225" lon="18.07757">
        <ele>38</ele>
        <time>2020-01-28T06:33:05Z</time>
      </trkpt>
      <trkpt lat="59.306247" lon="18.077551">
        <ele>38</ele>
        <time>2020-01-28T06:33:06Z</time>
      </trkpt>
      <trkpt lat="59.306268" lon="18.077532">
        <ele>39</ele>
        <time>2020-01-28T06:33:08Z</time>
      </trkpt>
      <trkpt lat="59.306288" lon="18.077508">
        <ele>39</ele>
        <time>2020-01-28T06:33:09Z</time>
      </trkpt>
      <trkpt lat="59.30631" lon="18.077488">
        <ele>39</ele>
        <time>2020-01-28T06:33:09Z</time>
      </trkpt>
      <trkpt lat="59.306334" lon="18.077466">
        <ele>39</ele>
        <time>2020-01-28T06:33:11Z</time>
      </trkpt>
      <trkpt lat="59.306353" lon="18.07745">
        <ele>39</ele>
        <time>2020-01-28T06:33:11Z</time>
      </trkpt>
      <trkpt lat="59.306372" lon="18.077434">
        <ele>39</ele>
        <time>2020-01-28T06:33:12Z</time>
      </trkpt>
      <trkpt lat="59.306396" lon="18.07742">
        <ele>40</ele>
        <time>2020-01-28T06:33:14Z</time>
      </trkpt>
      <trkpt lat="59.30642" lon="18.0774">
        <ele>40</ele>
        <time>2020-01-28T06:33:14Z</time>
      </trkpt>
      <trkpt lat="59.306446" lon="18.077385">
        <ele>40</ele>
        <time>2020-01-28T06:33:16Z</time>
      </trkpt>
      <trkpt lat="59.306473" lon="18.077369">
        <ele>40</ele>
        <time>2020-01-28T06:33:16Z</time>
      </trkpt>
      <trkpt lat="59.306498" lon="18.077348">
        <ele>40</ele>
        <time>2020-01-28T06:33:17Z</time>
      </trkpt>
      <trkpt lat="59.306525" lon="18.077327">
        <ele>40</ele>
        <time>2020-01-28T06:33:19Z</time>
      </trkpt>
      <trkpt lat="59.306546" lon="18.07728">
        <ele>40</ele>
        <time>2020-01-28T06:33:19Z</time>
      </trkpt>
      <trkpt lat="59.30657" lon="18.077263">
        <ele>40</ele>
        <time>2020-01-28T06:33:21Z</time>
      </trkpt>
      <trkpt lat="59.3066" lon="18.077241">
        <ele>41</ele>
        <time>2020-01-28T06:33:21Z</time>
      </trkpt>
      <trkpt lat="59.306621" lon="18.077184">
        <ele>41</ele>
        <time>2020-01-28T06:33:22Z</time>
      </trkpt>
      <trkpt lat="59.306691" lon="18.077019">
        <ele>41</ele>
        <time>2020-01-28T06:33:25Z</time>
      </trkpt>
      <trkpt lat="59.306761" lon="18.076875">
        <ele>41</ele>
        <time>2020-01-28T06:33:28Z</time>
      </trkpt>
      <trkpt lat="59.30679" lon="18.076831">
        <ele>41</ele>
        <time>2020-01-28T06:33:30Z</time>
      </trkpt>
      <trkpt lat="59.306823" lon="18.076795">
        <ele>41</ele>
        <time>2020-01-28T06:33:31Z</time>
      </trkpt>
      <trkpt lat="59.306851" lon="18.076751">
        <ele>41</ele>
        <time>2020-01-28T06:33:31Z</time>
      </trkpt>
      <trkpt lat="59.306907" lon="18.076674">
        <ele>41</ele>
        <time>2020-01-28T06:33:34Z</time>
      </trkpt>
      <trkpt lat="59.306954" lon="18.076616">
        <ele>41</ele>
        <time>2020-01-28T06:33:35Z</time>
      </trkpt>
      <trkpt lat="59.306975" lon="18.07659">
        <ele>41</ele>
        <time>2020-01-28T06:33:37Z</time>
      </trkpt>
      <trkpt lat="59.306998" lon="18.076562">
        <ele>41</ele>
        <time>2020-01-28T06:33:37Z</time>
      </trkpt>
      <trkpt lat="59.30702" lon="18.076531">
        <ele>42</ele>
        <time>2020-01-28T06:33:38Z</time>
      </trkpt>
      <trkpt lat="59.307045" lon="18.076505">
        <ele>42</ele>
        <time>2020-01-28T06:33:40Z</time>
      </trkpt>
      <trkpt lat="59.307068" lon="18.076486">
        <ele>42</ele>
        <time>2020-01-28T06:33:40Z</time>
      </trkpt>
      <trkpt lat="59.307094" lon="18.076464">
        <ele>42</ele>
        <time>2020-01-28T06:33:42Z</time>
      </trkpt>
      <trkpt lat="59.307117" lon="18.076442">
        <ele>42</ele>
        <time>2020-01-28T06:33:42Z</time>
      </trkpt>
      <trkpt lat="59.307143" lon="18.076421">
        <ele>42</ele>
        <time>2020-01-28T06:33:43Z</time>
      </trkpt>
      <trkpt lat="59.307168" lon="18.076395">
        <ele>42</ele>
        <time>2020-01-28T06:33:45Z</time>
      </trkpt>
      <trkpt lat="59.307192" lon="18.076379">
        <ele>42</ele>
        <time>2020-01-28T06:33:45Z</time>
      </trkpt>
      <trkpt lat="59.307217" lon="18.076357">
        <ele>42</ele>
        <time>2020-01-28T06:33:47Z</time>
      </trkpt>
      <trkpt lat="59.307243" lon="18.076322">
        <ele>42</ele>
        <time>2020-01-28T06:33:47Z</time>
      </trkpt>
      <trkpt lat="59.307269" lon="18.0763">
        <ele>42</ele>
        <time>2020-01-28T06:33:49Z</time>
      </trkpt>
      <trkpt lat="59.307289" lon="18.076286">
        <ele>42</ele>
        <time>2020-01-28T06:33:50Z</time>
      </trkpt>
      <trkpt lat="59.307307" lon="18.076275">
        <ele>42</ele>
        <time>2020-01-28T06:33:50Z</time>
      </trkpt>
      <trkpt lat="59.307325" lon="18.076264">
        <ele>42</ele>
        <time>2020-01-28T06:33:52Z</time>
      </trkpt>
      <trkpt lat="59.30735" lon="18.076251">
        <ele>42</ele>
        <time>2020-01-28T06:33:52Z</time>
      </trkpt>
      <trkpt lat="59.307378" lon="18.076235">
        <ele>42</ele>
        <time>2020-01-28T06:33:53Z</time>
      </trkpt>
      <trkpt lat="59.307405" lon="18.076232">
        <ele>42</ele>
        <time>2020-01-28T06:33:55Z</time>
      </trkpt>
      <trkpt lat="59.307434" lon="18.076249">
        <ele>43</ele>
        <time>2020-01-28T06:33:55Z</time>
      </trkpt>
      <trkpt lat="59.307469" lon="18.076296">
        <ele>42</ele>
        <time>2020-01-28T06:33:56Z</time>
      </trkpt>
      <trkpt lat="59.307503" lon="18.076338">
        <ele>42</ele>
        <time>2020-01-28T06:33:58Z</time>
      </trkpt>
      <trkpt lat="59.307538" lon="18.076388">
        <ele>43</ele>
        <time>2020-01-28T06:33:58Z</time>
      </trkpt>
      <trkpt lat="59.307564" lon="18.076437">
        <ele>43</ele>
        <time>2020-01-28T06:33:59Z</time>
      </trkpt>
      <trkpt lat="59.307589" lon="18.076483">
        <ele>43</ele>
        <time>2020-01-28T06:34:01Z</time>
      </trkpt>
      <trkpt lat="59.307618" lon="18.076513">
        <ele>43</ele>
        <time>2020-01-28T06:34:01Z</time>
      </trkpt>
      <trkpt lat="59.307649" lon="18.076539">
        <ele>44</ele>
        <time>2020-01-28T06:34:02Z</time>
      </trkpt>
      <trkpt lat="59.307671" lon="18.076564">
        <ele>44</ele>
        <time>2020-01-28T06:34:03Z</time>
      </trkpt>
      <trkpt lat="59.307691" lon="18.076587">
        <ele>44</ele>
        <time>2020-01-28T06:34:04Z</time>
      </trkpt>
      <trkpt lat="59.307707" lon="18.076615">
        <ele>44</ele>
        <time>2020-01-28T06:34:06Z</time>
      </trkpt>
      <trkpt lat="59.307732" lon="18.07665">
        <ele>44</ele>
        <time>2020-01-28T06:34:07Z</time>
      </trkpt>
      <trkpt lat="59.307746" lon="18.076677">
        <ele>44</ele>
        <time>2020-01-28T06:34:10Z</time>
      </trkpt>
      <trkpt lat="59.307763" lon="18.076709">
        <ele>44</ele>
        <time>2020-01-28T06:34:11Z</time>
      </trkpt>
      <trkpt lat="59.30778" lon="18.076741">
        <ele>43</ele>
        <time>2020-01-28T06:34:15Z</time>
      </trkpt>
      <trkpt lat="59.307793" lon="18.076777">
        <ele>40</ele>
        <time>2020-01-28T06:34:20Z</time>
      </trkpt>
      <trkpt lat="59.307817" lon="18.076788">
        <ele>38</ele>
        <time>2020-01-28T06:34:23Z</time>
      </trkpt>
      <trkpt lat="59.307841" lon="18.076794">
        <ele>37</ele>
        <time>2020-01-28T06:34:25Z</time>
      </trkpt>
      <trkpt lat="59.30786" lon="18.076789">
        <ele>38</ele>
        <time>2020-01-28T06:34:25Z</time>
      </trkpt>
      <trkpt lat="59.307891" lon="18.076774">
        <ele>38</ele>
        <time>2020-01-28T06:34:27Z</time>
      </trkpt>
      <trkpt lat="59.307921" lon="18.076755">
        <ele>38</ele>
        <time>2020-01-28T06:34:30Z</time>
      </trkpt>
      <trkpt lat="59.307934" lon="18.076729">
        <ele>38</ele>
        <time>2020-01-28T06:34:31Z</time>
      </trkpt>
      <trkpt lat="59.307943" lon="18.076696">
        <ele>38</ele>
        <time>2020-01-28T06:34:33Z</time>
      </trkpt>
      <trkpt lat="59.307961" lon="18.076662">
        <ele>38</ele>
        <time>2020-01-28T06:34:33Z</time>
      </trkpt>
      <trkpt lat="59.307985" lon="18.076634">
        <ele>38</ele>
        <time>2020-01-28T06:34:34Z</time>
      </trkpt>
      <trkpt lat="59.308019" lon="18.076599">
        <ele>39</ele>
        <time>2020-01-28T06:34:36Z</time>
      </trkpt>
      <trkpt lat="59.30804" lon="18.07658">
        <ele>39</ele>
        <time>2020-01-28T06:34:36Z</time>
      </trkpt>
      <trkpt lat="59.308067" lon="18.076563">
        <ele>39</ele>
        <time>2020-01-28T06:34:38Z</time>
      </trkpt>
      <trkpt lat="59.308094" lon="18.07654">
        <ele>39</ele>
        <time>2020-01-28T06:34:38Z</time>
      </trkpt>
      <trkpt lat="59.308118" lon="18.076524">
        <ele>39</ele>
        <time>2020-01-28T06:34:40Z</time>
      </trkpt>
      <trkpt lat="59.308143" lon="18.076505">
        <ele>39</ele>
        <time>2020-01-28T06:34:40Z</time>
      </trkpt>
      <trkpt lat="59.308168" lon="18.076482">
        <ele>39</ele>
        <time>2020-01-28T06:34:41Z</time>
      </trkpt>
      <trkpt lat="59.3082" lon="18.076455">
        <ele>39</ele>
        <time>2020-01-28T06:34:43Z</time>
      </trkpt>
      <trkpt lat="59.308217" lon="18.076374">
        <ele>39</ele>
        <time>2020-01-28T06:34:44Z</time>
      </trkpt>
      <trkpt lat="59.308246" lon="18.076347">
        <ele>39</ele>
        <time>2020-01-28T06:34:44Z</time>
      </trkpt>
      <trkpt lat="59.308273" lon="18.076327">
        <ele>39</ele>
        <time>2020-01-28T06:34:46Z</time>
      </trkpt>
      <trkpt lat="59.308293" lon="18.076288">
        <ele>39</ele>
        <time>2020-01-28T06:34:46Z</time>
      </trkpt>
      <trkpt lat="59.308317" lon="18.076268">
        <ele>39</ele>
        <time>2020-01-28T06:34:47Z</time>
      </trkpt>
      <trkpt lat="59.308335" lon="18.076225">
        <ele>40</ele>
        <time>2020-01-28T06:34:49Z</time>
      </trkpt>
      <trkpt lat="59.308353" lon="18.076192">
        <ele>40</ele>
        <time>2020-01-28T06:34:49Z</time>
      </trkpt>
      <trkpt lat="59.308376" lon="18.076161">
        <ele>40</ele>
        <time>2020-01-28T06:34:51Z</time>
      </trkpt>
      <trkpt lat="59.308402" lon="18.07613">
        <ele>40</ele>
        <time>2020-01-28T06:34:51Z</time>
      </trkpt>
      <trkpt lat="59.308426" lon="18.07612">
        <ele>40</ele>
        <time>2020-01-28T06:34:52Z</time>
      </trkpt>
      <trkpt lat="59.308458" lon="18.076105">
        <ele>40</ele>
        <time>2020-01-28T06:34:54Z</time>
      </trkpt>
      <trkpt lat="59.308485" lon="18.076079">
        <ele>40</ele>
        <time>2020-01-28T06:34:54Z</time>
      </trkpt>
      <trkpt lat="59.308508" lon="18.076066">
        <ele>40</ele>
        <time>2020-01-28T06:34:55Z</time>
      </trkpt>
      <trkpt lat="59.308532" lon="18.076042">
        <ele>41</ele>
        <time>2020-01-28T06:34:57Z</time>
      </trkpt>
      <trkpt lat="59.308634" lon="18.075907">
        <ele>41</ele>
        <time>2020-01-28T06:35:00Z</time>
      </trkpt>
      <trkpt lat="59.308716" lon="18.075743">
        <ele>42</ele>
        <time>2020-01-28T06:35:03Z</time>
      </trkpt>
      <trkpt lat="59.308799" lon="18.075658">
        <ele>42</ele>
        <time>2020-01-28T06:35:06Z</time>
      </trkpt>
      <trkpt lat="59.308826" lon="18.075631">
        <ele>42</ele>
        <time>2020-01-28T06:35:08Z</time>
      </trkpt>
      <trkpt lat="59.30888" lon="18.075571">
        <ele>42</ele>
        <time>2020-01-28T06:35:09Z</time>
      </trkpt>
      <trkpt lat="59.308904" lon="18.075531">
        <ele>42</ele>
        <time>2020-01-28T06:35:11Z</time>
      </trkpt>
      <trkpt lat="59.308928" lon="18.075507">
        <ele>43</ele>
        <time>2020-01-28T06:35:11Z</time>
      </trkpt>
      <trkpt lat="59.30895" lon="18.075489">
        <ele>43</ele>
        <time>2020-01-28T06:35:13Z</time>
      </trkpt>
      <trkpt lat="59.308976" lon="18.075463">
        <ele>43</ele>
        <time>2020-01-28T06:35:13Z</time>
      </trkpt>
      <trkpt lat="59.309002" lon="18.075439">
        <ele>43</ele>
        <time>2020-01-28T06:35:14Z</time>
      </trkpt>
      <trkpt lat="59.309027" lon="18.075417">
        <ele>43</ele>
        <time>2020-01-28T06:35:16Z</time>
      </trkpt>
      <trkpt lat="59.309048" lon="18.075392">
        <ele>44</ele>
        <time>2020-01-28T06:35:16Z</time>
      </trkpt>
      <trkpt lat="59.309071" lon="18.075378">
        <ele>44</ele>
        <time>2020-01-28T06:35:17Z</time>
      </trkpt>
      <trkpt lat="59.309099" lon="18.075374">
        <ele>44</ele>
        <time>2020-01-28T06:35:19Z</time>
      </trkpt>
      <trkpt lat="59.309122" lon="18.075369">
        <ele>45</ele>
        <time>2020-01-28T06:35:19Z</time>
      </trkpt>
      <trkpt lat="59.309147" lon="18.075353">
        <ele>45</ele>
        <time>2020-01-28T06:35:21Z</time>
      </trkpt>
      <trkpt lat="59.309174" lon="18.075351">
        <ele>46</ele>
        <time>2020-01-28T06:35:22Z</time>
      </trkpt>
      <trkpt lat="59.309208" lon="18.075345">
        <ele>47</ele>
        <time>2020-01-28T06:35:22Z</time>
      </trkpt>
      <trkpt lat="59.309236" lon="18.075335">
        <ele>48</ele>
        <time>2020-01-28T06:35:24Z</time>
      </trkpt>
      <trkpt lat="59.309271" lon="18.075327">
        <ele>48</ele>
        <time>2020-01-28T06:35:24Z</time>
      </trkpt>
      <trkpt lat="59.309361" lon="18.075386">
        <ele>48</ele>
        <time>2020-01-28T06:35:27Z</time>
      </trkpt>
      <trkpt lat="59.309426" lon="18.075514">
        <ele>48</ele>
        <time>2020-01-28T06:35:29Z</time>
      </trkpt>
      <trkpt lat="59.309512" lon="18.075447">
        <ele>48</ele>
        <time>2020-01-28T06:35:33Z</time>
      </trkpt>
      <trkpt lat="59.309583" lon="18.075333">
        <ele>48</ele>
        <time>2020-01-28T06:35:37Z</time>
      </trkpt>
      <trkpt lat="59.309684" lon="18.075204">
        <ele>49</ele>
        <time>2020-01-28T06:35:41Z</time>
      </trkpt>
      <trkpt lat="59.309769" lon="18.075117">
        <ele>49</ele>
        <time>2020-01-28T06:35:44Z</time>
      </trkpt>
      <trkpt lat="59.30986" lon="18.075051">
        <ele>50</ele>
        <time>2020-01-28T06:35:47Z</time>
      </trkpt>
      <trkpt lat="59.309937" lon="18.07502">
        <ele>50</ele>
        <time>2020-01-28T06:35:50Z</time>
      </trkpt>
      <trkpt lat="59.309962" lon="18.075">
        <ele>50</ele>
        <time>2020-01-28T06:35:51Z</time>
      </trkpt>
      <trkpt lat="59.309987" lon="18.07499">
        <ele>50</ele>
        <time>2020-01-28T06:35:53Z</time>
      </trkpt>
      <trkpt lat="59.310016" lon="18.074976">
        <ele>50</ele>
        <time>2020-01-28T06:35:53Z</time>
      </trkpt>
      <trkpt lat="59.310041" lon="18.07496">
        <ele>50</ele>
        <time>2020-01-28T06:35:55Z</time>
      </trkpt>
      <trkpt lat="59.310086" lon="18.074939">
        <ele>50</ele>
        <time>2020-01-28T06:35:56Z</time>
      </trkpt>
      <trkpt lat="59.310111" lon="18.074917">
        <ele>50</ele>
        <time>2020-01-28T06:35:58Z</time>
      </trkpt>
      <trkpt lat="59.310174" lon="18.074891">
        <ele>50</ele>
        <time>2020-01-28T06:36:00Z</time>
      </trkpt>
      <trkpt lat="59.310207" lon="18.074883">
        <ele>50</ele>
        <time>2020-01-28T06:36:02Z</time>
      </trkpt>
      <trkpt lat="59.310246" lon="18.074876">
        <ele>50</ele>
        <time>2020-01-28T06:36:02Z</time>
      </trkpt>
      <trkpt lat="59.31028" lon="18.074867">
        <ele>50</ele>
        <time>2020-01-28T06:36:03Z</time>
      </trkpt>
      <trkpt lat="59.310384" lon="18.074833">
        <ele>49</ele>
        <time>2020-01-28T06:36:07Z</time>
      </trkpt>
      <trkpt lat="59.310415" lon="18.074874">
        <ele>49</ele>
        <time>2020-01-28T06:36:08Z</time>
      </trkpt>
      <trkpt lat="59.310467" lon="18.074909">
        <ele>50</ele>
        <time>2020-01-28T06:36:11Z</time>
      </trkpt>
      <trkpt lat="59.310489" lon="18.074919">
        <ele>51</ele>
        <time>2020-01-28T06:36:13Z</time>
      </trkpt>
      <trkpt lat="59.310542" lon="18.074922">
        <ele>52</ele>
        <time>2020-01-28T06:36:15Z</time>
      </trkpt>
      <trkpt lat="59.310572" lon="18.074916">
        <ele>52</ele>
        <time>2020-01-28T06:36:15Z</time>
      </trkpt>
      <trkpt lat="59.310601" lon="18.07489">
        <ele>52</ele>
        <time>2020-01-28T06:36:16Z</time>
      </trkpt>
      <trkpt lat="59.310687" lon="18.074813">
        <ele>52</ele>
        <time>2020-01-28T06:36:19Z</time>
      </trkpt>
      <trkpt lat="59.310772" lon="18.074737">
        <ele>52</ele>
        <time>2020-01-28T06:36:22Z</time>
      </trkpt>
      <trkpt lat="59.310799" lon="18.074709">
        <ele>52</ele>
        <time>2020-01-28T06:36:24Z</time>
      </trkpt>
      <trkpt lat="59.310898" lon="18.074629">
        <ele>52</ele>
        <time>2020-01-28T06:36:27Z</time>
      </trkpt>
      <trkpt lat="59.311001" lon="18.074558">
        <ele>52</ele>
        <time>2020-01-28T06:36:32Z</time>
      </trkpt>
      <trkpt lat="59.311055" lon="18.074527">
        <ele>52</ele>
        <time>2020-01-28T06:36:33Z</time>
      </trkpt>
      <trkpt lat="59.311079" lon="18.07451">
        <ele>52</ele>
        <time>2020-01-28T06:36:35Z</time>
      </trkpt>
      <trkpt lat="59.311106" lon="18.074481">
        <ele>52</ele>
        <time>2020-01-28T06:36:35Z</time>
      </trkpt>
      <trkpt lat="59.311134" lon="18.07445">
        <ele>52</ele>
        <time>2020-01-28T06:36:36Z</time>
      </trkpt>
      <trkpt lat="59.311157" lon="18.07443">
        <ele>52</ele>
        <time>2020-01-28T06:36:38Z</time>
      </trkpt>
      <trkpt lat="59.311183" lon="18.074409">
        <ele>52</ele>
        <time>2020-01-28T06:36:38Z</time>
      </trkpt>
      <trkpt lat="59.311211" lon="18.074381">
        <ele>52</ele>
        <time>2020-01-28T06:36:40Z</time>
      </trkpt>
      <trkpt lat="59.311238" lon="18.074352">
        <ele>52</ele>
        <time>2020-01-28T06:36:40Z</time>
      </trkpt>
      <trkpt lat="59.311266" lon="18.074337">
        <ele>52</ele>
        <time>2020-01-28T06:36:42Z</time>
      </trkpt>
      <trkpt lat="59.311293" lon="18.07433">
        <ele>52</ele>
        <time>2020-01-28T06:36:42Z</time>
      </trkpt>
      <trkpt lat="59.311314" lon="18.074315">
        <ele>52</ele>
        <time>2020-01-28T06:36:43Z</time>
      </trkpt>
      <trkpt lat="59.311416" lon="18.0743">
        <ele>51</ele>
        <time>2020-01-28T06:36:48Z</time>
      </trkpt>
      <trkpt lat="59.311509" lon="18.074373">
        <ele>54</ele>
        <time>2020-01-28T06:36:54Z</time>
      </trkpt>
      <trkpt lat="59.311605" lon="18.074299">
        <ele>55</ele>
        <time>2020-01-28T06:37:02Z</time>
      </trkpt>
      <trkpt lat="59.311728" lon="18.074191">
        <ele>56</ele>
        <time>2020-01-28T06:37:05Z</time>
      </trkpt>
      <trkpt lat="59.311843" lon="18.074105">
        <ele>57</ele>
        <time>2020-01-28T06:37:08Z</time>
      </trkpt>
      <trkpt lat="59.311925" lon="18.074028">
        <ele>57</ele>
        <time>2020-01-28T06:37:11Z</time>
      </trkpt>
      <trkpt lat="59.312017" lon="18.074">
        <ele>58</ele>
        <time>2020-01-28T06:37:16Z</time>
      </trkpt>
      <trkpt lat="59.312109" lon="18.073909">
        <ele>60</ele>
        <time>2020-01-28T06:37:19Z</time>
      </trkpt>
      <trkpt lat="59.312195" lon="18.073833">
        <ele>59</ele>
        <time>2020-01-28T06:37:21Z</time>
      </trkpt>
      <trkpt lat="59.312279" lon="18.073755">
        <ele>59</ele>
        <time>2020-01-28T06:37:24Z</time>
      </trkpt>
      <trkpt lat="59.312361" lon="18.073675">
        <ele>59</ele>
        <time>2020-01-28T06:37:26Z</time>
      </trkpt>
      <trkpt lat="59.312447" lon="18.07361">
        <ele>59</ele>
        <time>2020-01-28T06:37:31Z</time>
      </trkpt>
      <trkpt lat="59.312565" lon="18.073612">
        <ele>59</ele>
        <time>2020-01-28T06:37:35Z</time>
      </trkpt>
      <trkpt lat="59.312695" lon="18.073618">
        <ele>61</ele>
        <time>2020-01-28T06:37:39Z</time>
      </trkpt>
      <trkpt lat="59.312746" lon="18.073656">
        <ele>61</ele>
        <time>2020-01-28T06:37:40Z</time>
      </trkpt>
      <trkpt lat="59.31277" lon="18.07366">
        <ele>61</ele>
        <time>2020-01-28T06:37:42Z</time>
      </trkpt>
      <trkpt lat="59.31279" lon="18.073662">
        <ele>61</ele>
        <time>2020-01-28T06:37:42Z</time>
      </trkpt>
      <trkpt lat="59.312829" lon="18.073661">
        <ele>63</ele>
        <time>2020-01-28T06:37:45Z</time>
      </trkpt>
      <trkpt lat="59.312848" lon="18.073661">
        <ele>64</ele>
        <time>2020-01-28T06:37:45Z</time>
      </trkpt>
      <trkpt lat="59.312869" lon="18.073657">
        <ele>64</ele>
        <time>2020-01-28T06:37:47Z</time>
      </trkpt>
      <trkpt lat="59.312893" lon="18.07364">
        <ele>64</ele>
        <time>2020-01-28T06:37:47Z</time>
      </trkpt>
      <trkpt lat="59.312919" lon="18.073622">
        <ele>64</ele>
        <time>2020-01-28T06:37:48Z</time>
      </trkpt>
      <trkpt lat="59.312942" lon="18.0736">
        <ele>65</ele>
        <time>2020-01-28T06:37:50Z</time>
      </trkpt>
      <trkpt lat="59.31297" lon="18.073577">
        <ele>65</ele>
        <time>2020-01-28T06:37:50Z</time>
      </trkpt>
      <trkpt lat="59.312999" lon="18.073553">
        <ele>65</ele>
        <time>2020-01-28T06:37:51Z</time>
      </trkpt>
      <trkpt lat="59.31305" lon="18.073511">
        <ele>65</ele>
        <time>2020-01-28T06:37:54Z</time>
      </trkpt>
      <trkpt lat="59.313143" lon="18.073429">
        <ele>66</ele>
        <time>2020-01-28T06:37:57Z</time>
      </trkpt>
      <trkpt lat="59.313255" lon="18.073401">
        <ele>66</ele>
        <time>2020-01-28T06:38:01Z</time>
      </trkpt>
      <trkpt lat="59.313369" lon="18.073412">
        <ele>65</ele>
        <time>2020-01-28T06:38:04Z</time>
      </trkpt>
      <trkpt lat="59.313471" lon="18.073421">
        <ele>64</ele>
        <time>2020-01-28T06:38:07Z</time>
      </trkpt>
      <trkpt lat="59.313575" lon="18.073386">
        <ele>64</ele>
        <time>2020-01-28T06:38:10Z</time>
      </trkpt>
      <trkpt lat="59.31368" lon="18.073345">
        <ele>64</ele>
        <time>2020-01-28T06:38:13Z</time>
      </trkpt>
      <trkpt lat="59.313781" lon="18.073298">
        <ele>63</ele>
        <time>2020-01-28T06:38:16Z</time>
      </trkpt>
      <trkpt lat="59.313812" lon="18.073286">
        <ele>63</ele>
        <time>2020-01-28T06:38:17Z</time>
      </trkpt>
      <trkpt lat="59.31392" lon="18.073232">
        <ele>62</ele>
        <time>2020-01-28T06:38:22Z</time>
      </trkpt>
      <trkpt lat="59.31402" lon="18.073175">
        <ele>61</ele>
        <time>2020-01-28T06:38:25Z</time>
      </trkpt>
      <trkpt lat="59.314116" lon="18.073209">
        <ele>61</ele>
        <time>2020-01-28T06:38:28Z</time>
      </trkpt>
      <trkpt lat="59.314211" lon="18.073318">
        <ele>60</ele>
        <time>2020-01-28T06:38:30Z</time>
      </trkpt>
      <trkpt lat="59.31432" lon="18.073274">
        <ele>60</ele>
        <time>2020-01-28T06:38:35Z</time>
      </trkpt>
      <trkpt lat="59.31441" lon="18.073149">
        <ele>59</ele>
        <time>2020-01-28T06:38:39Z</time>
      </trkpt>
      <trkpt lat="59.314486" lon="18.073011">
        <ele>58</ele>
        <time>2020-01-28T06:38:42Z</time>
      </trkpt>
      <trkpt lat="59.314568" lon="18.072931">
        <ele>57</ele>
        <time>2020-01-28T06:38:45Z</time>
      </trkpt>
      <trkpt lat="59.314653" lon="18.072821">
        <ele>56</ele>
        <time>2020-01-28T06:38:49Z</time>
      </trkpt>
      <trkpt lat="59.314705" lon="18.072821">
        <ele>56</ele>
        <time>2020-01-28T06:38:51Z</time>
      </trkpt>
      <trkpt lat="59.314732" lon="18.072815">
        <ele>56</ele>
        <time>2020-01-28T06:38:52Z</time>
      </trkpt>
      <trkpt lat="59.314756" lon="18.072815">
        <ele>55</ele>
        <time>2020-01-28T06:38:54Z</time>
      </trkpt>
      <trkpt lat="59.314781" lon="18.072814">
        <ele>55</ele>
        <time>2020-01-28T06:38:55Z</time>
      </trkpt>
      <trkpt lat="59.314805" lon="18.072816">
        <ele>56</ele>
        <time>2020-01-28T06:38:55Z</time>
      </trkpt>
      <trkpt lat="59.314839" lon="18.072824">
        <ele>56</ele>
        <time>2020-01-28T06:38:57Z</time>
      </trkpt>
      <trkpt lat="59.314862" lon="18.072824">
        <ele>56</ele>
        <time>2020-01-28T06:38:57Z</time>
      </trkpt>
      <trkpt lat="59.314885" lon="18.072835">
        <ele>57</ele>
        <time>2020-01-28T06:38:58Z</time>
      </trkpt>
      <trkpt lat="59.31499" lon="18.072865">
        <ele>57</ele>
        <time>2020-01-28T06:39:03Z</time>
      </trkpt>
      <trkpt lat="59.31502" lon="18.072879">
        <ele>56</ele>
        <time>2020-01-28T06:39:04Z</time>
      </trkpt>
      <trkpt lat="59.315047" lon="18.072888">
        <ele>56</ele>
        <time>2020-01-28T06:39:04Z</time>
      </trkpt>
      <trkpt lat="59.31507" lon="18.07289">
        <ele>56</ele>
        <time>2020-01-28T06:39:05Z</time>
      </trkpt>
      <trkpt lat="59.315092" lon="18.072888">
        <ele>55</ele>
        <time>2020-01-28T06:39:07Z</time>
      </trkpt>
      <trkpt lat="59.315115" lon="18.072897">
        <ele>55</ele>
        <time>2020-01-28T06:39:07Z</time>
      </trkpt>
      <trkpt lat="59.31514" lon="18.072896">
        <ele>55</ele>
        <time>2020-01-28T06:39:08Z</time>
      </trkpt>
      <trkpt lat="59.31517" lon="18.07289">
        <ele>55</ele>
        <time>2020-01-28T06:39:10Z</time>
      </trkpt>
      <trkpt lat="59.315197" lon="18.072896">
        <ele>54</ele>
        <time>2020-01-28T06:39:10Z</time>
      </trkpt>
      <trkpt lat="59.315228" lon="18.072895">
        <ele>54</ele>
        <time>2020-01-28T06:39:12Z</time>
      </trkpt>
      <trkpt lat="59.315259" lon="18.072889">
        <ele>54</ele>
        <time>2020-01-28T06:39:12Z</time>
      </trkpt>
      <trkpt lat="59.315313" lon="18.072864">
        <ele>54</ele>
        <time>2020-01-28T06:39:15Z</time>
      </trkpt>
      <trkpt lat="59.315339" lon="18.072853">
        <ele>54</ele>
        <time>2020-01-28T06:39:15Z</time>
      </trkpt>
      <trkpt lat="59.315364" lon="18.072844">
        <ele>53</ele>
        <time>2020-01-28T06:39:16Z</time>
      </trkpt>
      <trkpt lat="59.315388" lon="18.072835">
        <ele>54</ele>
        <time>2020-01-28T06:39:17Z</time>
      </trkpt>
      <trkpt lat="59.315409" lon="18.072818">
        <ele>54</ele>
        <time>2020-01-28T06:39:18Z</time>
      </trkpt>
      <trkpt lat="59.31543" lon="18.072795">
        <ele>54</ele>
        <time>2020-01-28T06:39:20Z</time>
      </trkpt>
      <trkpt lat="59.315448" lon="18.072772">
        <ele>54</ele>
        <time>2020-01-28T06:39:20Z</time>
      </trkpt>
      <trkpt lat="59.315467" lon="18.072751">
        <ele>54</ele>
        <time>2020-01-28T06:39:21Z</time>
      </trkpt>
      <trkpt lat="59.315487" lon="18.072725">
        <ele>54</ele>
        <time>2020-01-28T06:39:23Z</time>
      </trkpt>
      <trkpt lat="59.315578" lon="18.072642">
        <ele>54</ele>
        <time>2020-01-28T06:39:26Z</time>
      </trkpt>
      <trkpt lat="59.315669" lon="18.072532">
        <ele>54</ele>
        <time>2020-01-28T06:39:30Z</time>
      </trkpt>
      <trkpt lat="59.315743" lon="18.072398">
        <ele>54</ele>
        <time>2020-01-28T06:39:34Z</time>
      </trkpt>
      <trkpt lat="59.315855" lon="18.0723">
        <ele>54</ele>
        <time>2020-01-28T06:39:38Z</time>
      </trkpt>
      <trkpt lat="59.315953" lon="18.072196">
        <ele>53</ele>
        <time>2020-01-28T06:39:42Z</time>
      </trkpt>
      <trkpt lat="59.316048" lon="18.07215">
        <ele>53</ele>
        <time>2020-01-28T06:39:46Z</time>
      </trkpt>
      <trkpt lat="59.316147" lon="18.072132">
        <ele>53</ele>
        <time>2020-01-28T06:39:50Z</time>
      </trkpt>
      <trkpt lat="59.316246" lon="18.072089">
        <ele>52</ele>
        <time>2020-01-28T06:39:53Z</time>
      </trkpt>
      <trkpt lat="59.316353" lon="18.072022">
        <ele>53</ele>
        <time>2020-01-28T06:39:56Z</time>
      </trkpt>
      <trkpt lat="59.316441" lon="18.071971">
        <ele>53</ele>
        <time>2020-01-28T06:40:00Z</time>
      </trkpt>
      <trkpt lat="59.316552" lon="18.071985">
        <ele>53</ele>
        <time>2020-01-28T06:40:09Z</time>
      </trkpt>
      <trkpt lat="59.316665" lon="18.071953">
        <ele>53</ele>
        <time>2020-01-28T06:40:12Z</time>
      </trkpt>
      <trkpt lat="59.316768" lon="18.071877">
        <ele>53</ele>
        <time>2020-01-28T06:40:17Z</time>
      </trkpt>
      <trkpt lat="59.316878" lon="18.071779">
        <ele>54</ele>
        <time>2020-01-28T06:40:20Z</time>
      </trkpt>
      <trkpt lat="59.316954" lon="18.071676">
        <ele>55</ele>
        <time>2020-01-28T06:40:24Z</time>
      </trkpt>
      <trkpt lat="59.317061" lon="18.071651">
        <ele>54</ele>
        <time>2020-01-28T06:40:26Z</time>
      </trkpt>
      <trkpt lat="59.317171" lon="18.071616">
        <ele>53</ele>
        <time>2020-01-28T06:40:32Z</time>
      </trkpt>
      <trkpt lat="59.317263" lon="18.071553">
        <ele>53</ele>
        <time>2020-01-28T06:40:35Z</time>
      </trkpt>
      <trkpt lat="59.317372" lon="18.071535">
        <ele>53</ele>
        <time>2020-01-28T06:40:38Z</time>
      </trkpt>
      <trkpt lat="59.317463" lon="18.071507">
        <ele>53</ele>
        <time>2020-01-28T06:40:41Z</time>
      </trkpt>
      <trkpt lat="59.317558" lon="18.071412">
        <ele>53</ele>
        <time>2020-01-28T06:40:45Z</time>
      </trkpt>
      <trkpt lat="59.317667" lon="18.07137">
        <ele>53</ele>
        <time>2020-01-28T06:40:48Z</time>
      </trkpt>
      <trkpt lat="59.317774" lon="18.071333">
        <ele>53</ele>
        <time>2020-01-28T06:40:52Z</time>
      </trkpt>
      <trkpt lat="59.317872" lon="18.071266">
        <ele>53</ele>
        <time>2020-01-28T06:40:57Z</time>
      </trkpt>
      <trkpt lat="59.317977" lon="18.071247">
        <ele>53</ele>
        <time>2020-01-28T06:40:59Z</time>
      </trkpt>
      <trkpt lat="59.318098" lon="18.071228">
        <ele>53</ele>
        <time>2020-01-28T06:41:02Z</time>
      </trkpt>
      <trkpt lat="59.318202" lon="18.071162">
        <ele>53</ele>
        <time>2020-01-28T06:41:06Z</time>
      </trkpt>
      <trkpt lat="59.318294" lon="18.07113">
        <ele>52</ele>
        <time>2020-01-28T06:41:07Z</time>
      </trkpt>
      <trkpt lat="59.318404" lon="18.071062">
        <ele>52</ele>
        <time>2020-01-28T06:41:11Z</time>
      </trkpt>
      <trkpt lat="59.318521" lon="18.07106">
        <ele>53</ele>
        <time>2020-01-28T06:41:14Z</time>
      </trkpt>
      <trkpt lat="59.318615" lon="18.071">
        <ele>53</ele>
        <time>2020-01-28T06:41:17Z</time>
      </trkpt>
      <trkpt lat="59.318692" lon="18.070899">
        <ele>51</ele>
        <time>2020-01-28T06:41:22Z</time>
      </trkpt>
      <trkpt lat="59.318808" lon="18.07087">
        <ele>51</ele>
        <time>2020-01-28T06:41:25Z</time>
      </trkpt>
      <trkpt lat="59.318912" lon="18.070933">
        <ele>50</ele>
        <time>2020-01-28T06:41:28Z</time>
      </trkpt>
      <trkpt lat="59.319004" lon="18.070936">
        <ele>50</ele>
        <time>2020-01-28T06:41:31Z</time>
      </trkpt>
      <trkpt lat="59.319094" lon="18.070879">
        <ele>49</ele>
        <time>2020-01-28T06:41:34Z</time>
      </trkpt>
      <trkpt lat="59.319212" lon="18.07081">
        <ele>49</ele>
        <time>2020-01-28T06:41:39Z</time>
      </trkpt>
      <trkpt lat="59.319318" lon="18.070726">
        <ele>49</ele>
        <time>2020-01-28T06:41:42Z</time>
      </trkpt>
      <trkpt lat="59.319413" lon="18.07068">
        <ele>48</ele>
        <time>2020-01-28T06:41:44Z</time>
      </trkpt>
      <trkpt lat="59.319521" lon="18.070632">
        <ele>47</ele>
        <time>2020-01-28T06:41:49Z</time>
      </trkpt>
      <trkpt lat="59.319621" lon="18.070608">
        <ele>47</ele>
        <time>2020-01-28T06:41:53Z</time>
      </trkpt>
      <trkpt lat="59.319698" lon="18.070501">
        <ele>47</ele>
        <time>2020-01-28T06:41:56Z</time>
      </trkpt>
      <trkpt lat="59.31978" lon="18.070414">
        <ele>47</ele>
        <time>2020-01-28T06:41:58Z</time>
      </trkpt>
      <trkpt lat="59.319887" lon="18.070347">
        <ele>45</ele>
        <time>2020-01-28T06:42:01Z</time>
      </trkpt>
      <trkpt lat="59.320002" lon="18.070458">
        <ele>44</ele>
        <time>2020-01-28T06:42:04Z</time>
      </trkpt>
      <trkpt lat="59.320058" lon="18.070603">
        <ele>43</ele>
        <time>2020-01-28T06:42:07Z</time>
      </trkpt>
      <trkpt lat="59.320075" lon="18.070638">
        <ele>42</ele>
        <time>2020-01-28T06:42:09Z</time>
      </trkpt>
      <trkpt lat="59.320093" lon="18.070683">
        <ele>42</ele>
        <time>2020-01-28T06:42:09Z</time>
      </trkpt>
      <trkpt lat="59.320109" lon="18.070726">
        <ele>41</ele>
        <time>2020-01-28T06:42:10Z</time>
      </trkpt>
      <trkpt lat="59.320126" lon="18.070763">
        <ele>41</ele>
        <time>2020-01-28T06:42:12Z</time>
      </trkpt>
      <trkpt lat="59.320151" lon="18.070796">
        <ele>40</ele>
        <time>2020-01-28T06:42:13Z</time>
      </trkpt>
      <trkpt lat="59.320177" lon="18.070828">
        <ele>40</ele>
        <time>2020-01-28T06:42:13Z</time>
      </trkpt>
      <trkpt lat="59.320206" lon="18.070864">
        <ele>40</ele>
        <time>2020-01-28T06:42:14Z</time>
      </trkpt>
      <trkpt lat="59.320234" lon="18.070892">
        <ele>39</ele>
        <time>2020-01-28T06:42:16Z</time>
      </trkpt>
      <trkpt lat="59.32026" lon="18.070925">
        <ele>39</ele>
        <time>2020-01-28T06:42:16Z</time>
      </trkpt>
      <trkpt lat="59.320271" lon="18.070966">
        <ele>38</ele>
        <time>2020-01-28T06:42:17Z</time>
      </trkpt>
      <trkpt lat="59.320275" lon="18.071018">
        <ele>38</ele>
        <time>2020-01-28T06:42:19Z</time>
      </trkpt>
      <trkpt lat="59.320284" lon="18.071062">
        <ele>38</ele>
        <time>2020-01-28T06:42:20Z</time>
      </trkpt>
      <trkpt lat="59.32029" lon="18.071103">
        <ele>37</ele>
        <time>2020-01-28T06:42:20Z</time>
      </trkpt>
      <trkpt lat="59.320302" lon="18.071146">
        <ele>37</ele>
        <time>2020-01-28T06:42:22Z</time>
      </trkpt>
      <trkpt lat="59.320322" lon="18.07119">
        <ele>37</ele>
        <time>2020-01-28T06:42:22Z</time>
      </trkpt>
      <trkpt lat="59.320349" lon="18.07122">
        <ele>36</ele>
        <time>2020-01-28T06:42:24Z</time>
      </trkpt>
      <trkpt lat="59.320374" lon="18.071246">
        <ele>36</ele>
        <time>2020-01-28T06:42:25Z</time>
      </trkpt>
      <trkpt lat="59.320399" lon="18.07127">
        <ele>35</ele>
        <time>2020-01-28T06:42:25Z</time>
      </trkpt>
      <trkpt lat="59.320425" lon="18.071294">
        <ele>34</ele>
        <time>2020-01-28T06:42:27Z</time>
      </trkpt>
      <trkpt lat="59.320449" lon="18.071316">
        <ele>34</ele>
        <time>2020-01-28T06:42:27Z</time>
      </trkpt>
      <trkpt lat="59.320476" lon="18.071336">
        <ele>33</ele>
        <time>2020-01-28T06:42:28Z</time>
      </trkpt>
      <trkpt lat="59.320505" lon="18.071347">
        <ele>33</ele>
        <time>2020-01-28T06:42:30Z</time>
      </trkpt>
      <trkpt lat="59.320534" lon="18.07135">
        <ele>33</ele>
        <time>2020-01-28T06:42:31Z</time>
      </trkpt>
      <trkpt lat="59.320561" lon="18.071354">
        <ele>32</ele>
        <time>2020-01-28T06:42:31Z</time>
      </trkpt>
      <trkpt lat="59.320589" lon="18.071356">
        <ele>32</ele>
        <time>2020-01-28T06:42:33Z</time>
      </trkpt>
      <trkpt lat="59.320618" lon="18.071364">
        <ele>32</ele>
        <time>2020-01-28T06:42:33Z</time>
      </trkpt>
      <trkpt lat="59.320643" lon="18.071371">
        <ele>31</ele>
        <time>2020-01-28T06:42:34Z</time>
      </trkpt>
      <trkpt lat="59.32067" lon="18.07139">
        <ele>31</ele>
        <time>2020-01-28T06:42:36Z</time>
      </trkpt>
      <trkpt lat="59.320698" lon="18.07141">
        <ele>31</ele>
        <time>2020-01-28T06:42:36Z</time>
      </trkpt>
      <trkpt lat="59.320726" lon="18.07143">
        <ele>31</ele>
        <time>2020-01-28T06:42:37Z</time>
      </trkpt>
      <trkpt lat="59.320754" lon="18.071456">
        <ele>30</ele>
        <time>2020-01-28T06:42:39Z</time>
      </trkpt>
      <trkpt lat="59.320779" lon="18.071498">
        <ele>30</ele>
        <time>2020-01-28T06:42:39Z</time>
      </trkpt>
      <trkpt lat="59.320803" lon="18.071547">
        <ele>30</ele>
        <time>2020-01-28T06:42:41Z</time>
      </trkpt>
      <trkpt lat="59.320819" lon="18.071608">
        <ele>30</ele>
        <time>2020-01-28T06:42:41Z</time>
      </trkpt>
      <trkpt lat="59.320832" lon="18.071668">
        <ele>30</ele>
        <time>2020-01-28T06:42:42Z</time>
      </trkpt>
      <trkpt lat="59.320847" lon="18.071724">
        <ele>30</ele>
        <time>2020-01-28T06:42:44Z</time>
      </trkpt>
      <trkpt lat="59.320862" lon="18.07178">
        <ele>29</ele>
        <time>2020-01-28T06:42:44Z</time>
      </trkpt>
      <trkpt lat="59.320875" lon="18.071834">
        <ele>29</ele>
        <time>2020-01-28T06:42:45Z</time>
      </trkpt>
      <trkpt lat="59.320887" lon="18.071893">
        <ele>29</ele>
        <time>2020-01-28T06:42:47Z</time>
      </trkpt>
      <trkpt lat="59.320905" lon="18.071948">
        <ele>29</ele>
        <time>2020-01-28T06:42:47Z</time>
      </trkpt>
      <trkpt lat="59.320929" lon="18.071989">
        <ele>29</ele>
        <time>2020-01-28T06:42:48Z</time>
      </trkpt>
      <trkpt lat="59.320953" lon="18.07202">
        <ele>28</ele>
        <time>2020-01-28T06:42:50Z</time>
      </trkpt>
      <trkpt lat="59.320978" lon="18.072052">
        <ele>28</ele>
        <time>2020-01-28T06:42:50Z</time>
      </trkpt>
      <trkpt lat="59.321002" lon="18.072079">
        <ele>28</ele>
        <time>2020-01-28T06:42:51Z</time>
      </trkpt>
      <trkpt lat="59.321025" lon="18.07211">
        <ele>28</ele>
        <time>2020-01-28T06:42:53Z</time>
      </trkpt>
      <trkpt lat="59.321051" lon="18.072142">
        <ele>27</ele>
        <time>2020-01-28T06:42:53Z</time>
      </trkpt>
      <trkpt lat="59.321077" lon="18.072169">
        <ele>27</ele>
        <time>2020-01-28T06:42:54Z</time>
      </trkpt>
      <trkpt lat="59.321103" lon="18.07219">
        <ele>27</ele>
        <time>2020-01-28T06:42:56Z</time>
      </trkpt>
      <trkpt lat="59.321128" lon="18.072206">
        <ele>27</ele>
        <time>2020-01-28T06:42:56Z</time>
      </trkpt>
      <trkpt lat="59.321158" lon="18.072226">
        <ele>27</ele>
        <time>2020-01-28T06:42:58Z</time>
      </trkpt>
      <trkpt lat="59.321182" lon="18.072246">
        <ele>26</ele>
        <time>2020-01-28T06:42:58Z</time>
      </trkpt>
      <trkpt lat="59.321207" lon="18.07227">
        <ele>26</ele>
        <time>2020-01-28T06:43:00Z</time>
      </trkpt>
      <trkpt lat="59.321233" lon="18.072298">
        <ele>26</ele>
        <time>2020-01-28T06:43:00Z</time>
      </trkpt>
      <trkpt lat="59.321261" lon="18.072326">
        <ele>26</ele>
        <time>2020-01-28T06:43:01Z</time>
      </trkpt>
      <trkpt lat="59.321287" lon="18.072351">
        <ele>26</ele>
        <time>2020-01-28T06:43:02Z</time>
      </trkpt>
      <trkpt lat="59.321317" lon="18.072375">
        <ele>25</ele>
        <time>2020-01-28T06:43:04Z</time>
      </trkpt>
      <trkpt lat="59.321346" lon="18.072405">
        <ele>25</ele>
        <time>2020-01-28T06:43:05Z</time>
      </trkpt>
      <trkpt lat="59.321371" lon="18.072431">
        <ele>25</ele>
        <time>2020-01-28T06:43:05Z</time>
      </trkpt>
      <trkpt lat="59.321398" lon="18.072455">
        <ele>25</ele>
        <time>2020-01-28T06:43:06Z</time>
      </trkpt>
      <trkpt lat="59.321421" lon="18.072477">
        <ele>25</ele>
        <time>2020-01-28T06:43:08Z</time>
      </trkpt>
      <trkpt lat="59.32145" lon="18.072495">
        <ele>25</ele>
        <time>2020-01-28T06:43:08Z</time>
      </trkpt>
      <trkpt lat="59.321477" lon="18.072514">
        <ele>24</ele>
        <time>2020-01-28T06:43:10Z</time>
      </trkpt>
      <trkpt lat="59.321503" lon="18.072533">
        <ele>24</ele>
        <time>2020-01-28T06:43:10Z</time>
      </trkpt>
      <trkpt lat="59.32153" lon="18.072551">
        <ele>24</ele>
        <time>2020-01-28T06:43:11Z</time>
      </trkpt>
      <trkpt lat="59.321555" lon="18.07257">
        <ele>24</ele>
        <time>2020-01-28T06:43:13Z</time>
      </trkpt>
      <trkpt lat="59.321581" lon="18.07259">
        <ele>24</ele>
        <time>2020-01-28T06:43:13Z</time>
      </trkpt>
      <trkpt lat="59.321607" lon="18.072612">
        <ele>24</ele>
        <time>2020-01-28T06:43:14Z</time>
      </trkpt>
      <trkpt lat="59.32163" lon="18.072634">
        <ele>23</ele>
        <time>2020-01-28T06:43:16Z</time>
      </trkpt>
      <trkpt lat="59.321659" lon="18.072646">
        <ele>23</ele>
        <time>2020-01-28T06:43:17Z</time>
      </trkpt>
      <trkpt lat="59.32169" lon="18.07266">
        <ele>23</ele>
        <time>2020-01-28T06:43:17Z</time>
      </trkpt>
      <trkpt lat="59.321719" lon="18.072673">
        <ele>23</ele>
        <time>2020-01-28T06:43:19Z</time>
      </trkpt>
      <trkpt lat="59.321746" lon="18.072691">
        <ele>23</ele>
        <time>2020-01-28T06:43:19Z</time>
      </trkpt>
      <trkpt lat="59.321775" lon="18.072709">
        <ele>22</ele>
        <time>2020-01-28T06:43:21Z</time>
      </trkpt>
      <trkpt lat="59.321799" lon="18.072724">
        <ele>22</ele>
        <time>2020-01-28T06:43:21Z</time>
      </trkpt>
      <trkpt lat="59.321822" lon="18.072739">
        <ele>22</ele>
        <time>2020-01-28T06:43:22Z</time>
      </trkpt>
      <trkpt lat="59.321846" lon="18.072747">
        <ele>22</ele>
        <time>2020-01-28T06:43:24Z</time>
      </trkpt>
      <trkpt lat="59.321872" lon="18.072761">
        <ele>22</ele>
        <time>2020-01-28T06:43:24Z</time>
      </trkpt>
      <trkpt lat="59.321895" lon="18.072782">
        <ele>22</ele>
        <time>2020-01-28T06:43:25Z</time>
      </trkpt>
      <trkpt lat="59.32192" lon="18.072804">
        <ele>22</ele>
        <time>2020-01-28T06:43:27Z</time>
      </trkpt>
      <trkpt lat="59.321938" lon="18.072824">
        <ele>22</ele>
        <time>2020-01-28T06:43:27Z</time>
      </trkpt>
      <trkpt lat="59.321959" lon="18.072845">
        <ele>22</ele>
        <time>2020-01-28T06:43:29Z</time>
      </trkpt>
      <trkpt lat="59.321977" lon="18.072878">
        <ele>22</ele>
        <time>2020-01-28T06:43:29Z</time>
      </trkpt>
      <trkpt lat="59.321988" lon="18.07292">
        <ele>21</ele>
        <time>2020-01-28T06:43:30Z</time>
      </trkpt>
      <trkpt lat="59.321997" lon="18.072965">
        <ele>22</ele>
        <time>2020-01-28T06:43:32Z</time>
      </trkpt>
      <trkpt lat="59.322004" lon="18.073006">
        <ele>22</ele>
        <time>2020-01-28T06:43:32Z</time>
      </trkpt>
      <trkpt lat="59.322002" lon="18.073057">
        <ele>22</ele>
        <time>2020-01-28T06:43:33Z</time>
      </trkpt>
      <trkpt lat="59.321996" lon="18.073113">
        <ele>22</ele>
        <time>2020-01-28T06:43:35Z</time>
      </trkpt>
      <trkpt lat="59.321987" lon="18.073167">
        <ele>22</ele>
        <time>2020-01-28T06:43:36Z</time>
      </trkpt>
      <trkpt lat="59.321952" lon="18.073325">
        <ele>21</ele>
        <time>2020-01-28T06:43:38Z</time>
      </trkpt>
      <trkpt lat="59.321943" lon="18.073373">
        <ele>21</ele>
        <time>2020-01-28T06:43:39Z</time>
      </trkpt>
      <trkpt lat="59.321928" lon="18.073582">
        <ele>21</ele>
        <time>2020-01-28T06:43:44Z</time>
      </trkpt>
      <trkpt lat="59.321929" lon="18.073773">
        <ele>21</ele>
        <time>2020-01-28T06:43:47Z</time>
      </trkpt>
      <trkpt lat="59.321989" lon="18.073849">
        <ele>20</ele>
        <time>2020-01-28T06:43:49Z</time>
      </trkpt>
      <trkpt lat="59.322077" lon="18.073983">
        <ele>19</ele>
        <time>2020-01-28T06:43:52Z</time>
      </trkpt>
      <trkpt lat="59.322157" lon="18.074097">
        <ele>19</ele>
        <time>2020-01-28T06:43:55Z</time>
      </trkpt>
      <trkpt lat="59.322237" lon="18.074199">
        <ele>18</ele>
        <time>2020-01-28T06:43:58Z</time>
      </trkpt>
      <trkpt lat="59.322336" lon="18.074311">
        <ele>19</ele>
        <time>2020-01-28T06:44:01Z</time>
      </trkpt>
      <trkpt lat="59.322426" lon="18.074451">
        <ele>19</ele>
        <time>2020-01-28T06:44:04Z</time>
      </trkpt>
      <trkpt lat="59.32251" lon="18.07455">
        <ele>20</ele>
        <time>2020-01-28T06:44:07Z</time>
      </trkpt>
      <trkpt lat="59.322612" lon="18.074655">
        <ele>20</ele>
        <time>2020-01-28T06:44:11Z</time>
      </trkpt>
      <trkpt lat="59.322714" lon="18.074707">
        <ele>21</ele>
        <time>2020-01-28T06:44:16Z</time>
      </trkpt>
      <trkpt lat="59.322798" lon="18.074846">
        <ele>21</ele>
        <time>2020-01-28T06:44:19Z</time>
      </trkpt>
      <trkpt lat="59.322887" lon="18.0749">
        <ele>21</ele>
        <time>2020-01-28T06:44:24Z</time>
      </trkpt>
      <trkpt lat="59.322981" lon="18.074973">
        <ele>21</ele>
        <time>2020-01-28T06:44:27Z</time>
      </trkpt>
      <trkpt lat="59.323054" lon="18.075085">
        <ele>22</ele>
        <time>2020-01-28T06:44:30Z</time>
      </trkpt>
      <trkpt lat="59.323138" lon="18.075172">
        <ele>22</ele>
        <time>2020-01-28T06:44:33Z</time>
      </trkpt>
      <trkpt lat="59.323239" lon="18.075269">
        <ele>22</ele>
        <time>2020-01-28T06:44:38Z</time>
      </trkpt>
      <trkpt lat="59.323328" lon="18.075389">
        <ele>22</ele>
        <time>2020-01-28T06:44:41Z</time>
      </trkpt>
      <trkpt lat="59.323437" lon="18.07536">
        <ele>22</ele>
        <time>2020-01-28T06:44:45Z</time>
      </trkpt>
      <trkpt lat="59.323538" lon="18.075441">
        <ele>23</ele>
        <time>2020-01-28T06:44:50Z</time>
      </trkpt>
      <trkpt lat="59.323641" lon="18.075399">
        <ele>23</ele>
        <time>2020-01-28T06:44:54Z</time>
      </trkpt>
      <trkpt lat="59.323747" lon="18.075405">
        <ele>23</ele>
        <time>2020-01-28T06:44:57Z</time>
      </trkpt>
      <trkpt lat="59.323857" lon="18.075418">
        <ele>23</ele>
        <time>2020-01-28T06:45:01Z</time>
      </trkpt>
      <trkpt lat="59.323967" lon="18.075406">
        <ele>23</ele>
        <time>2020-01-28T06:45:05Z</time>
      </trkpt>
      <trkpt lat="59.324069" lon="18.075522">
        <ele>23</ele>
        <time>2020-01-28T06:45:09Z</time>
      </trkpt>
      <trkpt lat="59.324177" lon="18.075507">
        <ele>23</ele>
        <time>2020-01-28T06:45:13Z</time>
      </trkpt>
      <trkpt lat="59.324224" lon="18.075528">
        <ele>22</ele>
        <time>2020-01-28T06:45:16Z</time>
      </trkpt>
      <trkpt lat="59.324327" lon="18.075514">
        <ele>21</ele>
        <time>2020-01-28T06:45:19Z</time>
      </trkpt>
      <trkpt lat="59.324431" lon="18.07552">
        <ele>20</ele>
        <time>2020-01-28T06:45:24Z</time>
      </trkpt>
      <trkpt lat="59.324542" lon="18.075542">
        <ele>19</ele>
        <time>2020-01-28T06:45:27Z</time>
      </trkpt>
      <trkpt lat="59.324661" lon="18.07561">
        <ele>19</ele>
        <time>2020-01-28T06:45:32Z</time>
      </trkpt>
      <trkpt lat="59.324748" lon="18.075662">
        <ele>19</ele>
        <time>2020-01-28T06:45:35Z</time>
      </trkpt>
      <trkpt lat="59.324864" lon="18.075682">
        <ele>18</ele>
        <time>2020-01-28T06:45:38Z</time>
      </trkpt>
      <trkpt lat="59.324982" lon="18.075642">
        <ele>17</ele>
        <time>2020-01-28T06:45:42Z</time>
      </trkpt>
      <trkpt lat="59.325074" lon="18.07561">
        <ele>15</ele>
        <time>2020-01-28T06:45:45Z</time>
      </trkpt>
      <trkpt lat="59.325104" lon="18.07561">
        <ele>15</ele>
        <time>2020-01-28T06:45:47Z</time>
      </trkpt>
      <trkpt lat="59.325133" lon="18.075612">
        <ele>15</ele>
        <time>2020-01-28T06:45:47Z</time>
      </trkpt>
      <trkpt lat="59.325159" lon="18.07561">
        <ele>15</ele>
        <time>2020-01-28T06:45:49Z</time>
      </trkpt>
      <trkpt lat="59.325188" lon="18.075608">
        <ele>15</ele>
        <time>2020-01-28T06:45:49Z</time>
      </trkpt>
      <trkpt lat="59.325213" lon="18.075604">
        <ele>15</ele>
        <time>2020-01-28T06:45:51Z</time>
      </trkpt>
      <trkpt lat="59.325242" lon="18.075601">
        <ele>15</ele>
        <time>2020-01-28T06:45:51Z</time>
      </trkpt>
      <trkpt lat="59.32527" lon="18.075608">
        <ele>15</ele>
        <time>2020-01-28T06:45:52Z</time>
      </trkpt>
      <trkpt lat="59.325343" lon="18.0756">
        <ele>14</ele>
        <time>2020-01-28T06:45:54Z</time>
      </trkpt>
      <trkpt lat="59.325459" lon="18.075606">
        <ele>15</ele>
        <time>2020-01-28T06:45:58Z</time>
      </trkpt>
      <trkpt lat="59.325549" lon="18.075613">
        <ele>15</ele>
        <time>2020-01-28T06:46:03Z</time>
      </trkpt>
      <trkpt lat="59.325639" lon="18.075691">
        <ele>15</ele>
        <time>2020-01-28T06:46:08Z</time>
      </trkpt>
      <trkpt lat="59.325683" lon="18.075715">
        <ele>14</ele>
        <time>2020-01-28T06:46:10Z</time>
      </trkpt>
      <trkpt lat="59.325713" lon="18.075699">
        <ele>13</ele>
        <time>2020-01-28T06:46:10Z</time>
      </trkpt>
      <trkpt lat="59.325741" lon="18.075686">
        <ele>13</ele>
        <time>2020-01-28T06:46:11Z</time>
      </trkpt>
      <trkpt lat="59.325762" lon="18.075669">
        <ele>13</ele>
        <time>2020-01-28T06:46:13Z</time>
      </trkpt>
      <trkpt lat="59.325781" lon="18.075652">
        <ele>12</ele>
        <time>2020-01-28T06:46:13Z</time>
      </trkpt>
      <trkpt lat="59.325803" lon="18.075636">
        <ele>12</ele>
        <time>2020-01-28T06:46:14Z</time>
      </trkpt>
      <trkpt lat="59.325827" lon="18.075618">
        <ele>12</ele>
        <time>2020-01-28T06:46:16Z</time>
      </trkpt>
      <trkpt lat="59.32585" lon="18.075598">
        <ele>11</ele>
        <time>2020-01-28T06:46:16Z</time>
      </trkpt>
      <trkpt lat="59.325871" lon="18.075578">
        <ele>11</ele>
        <time>2020-01-28T06:46:18Z</time>
      </trkpt>
      <trkpt lat="59.325893" lon="18.075555">
        <ele>11</ele>
        <time>2020-01-28T06:46:18Z</time>
      </trkpt>
      <trkpt lat="59.325918" lon="18.075533">
        <ele>11</ele>
        <time>2020-01-28T06:46:20Z</time>
      </trkpt>
      <trkpt lat="59.325945" lon="18.075512">
        <ele>11</ele>
        <time>2020-01-28T06:46:20Z</time>
      </trkpt>
      <trkpt lat="59.325969" lon="18.07549">
        <ele>10</ele>
        <time>2020-01-28T06:46:21Z</time>
      </trkpt>
      <trkpt lat="59.32599" lon="18.075465">
        <ele>11</ele>
        <time>2020-01-28T06:46:23Z</time>
      </trkpt>
      <trkpt lat="59.326013" lon="18.07544">
        <ele>10</ele>
        <time>2020-01-28T06:46:24Z</time>
      </trkpt>
      <trkpt lat="59.326035" lon="18.075418">
        <ele>10</ele>
        <time>2020-01-28T06:46:25Z</time>
      </trkpt>
      <trkpt lat="59.326059" lon="18.075393">
        <ele>11</ele>
        <time>2020-01-28T06:46:25Z</time>
      </trkpt>
      <trkpt lat="59.326082" lon="18.075366">
        <ele>11</ele>
        <time>2020-01-28T06:46:27Z</time>
      </trkpt>
      <trkpt lat="59.326106" lon="18.075335">
        <ele>11</ele>
        <time>2020-01-28T06:46:27Z</time>
      </trkpt>
      <trkpt lat="59.326129" lon="18.075307">
        <ele>11</ele>
        <time>2020-01-28T06:46:28Z</time>
      </trkpt>
      <trkpt lat="59.326151" lon="18.075276">
        <ele>11</ele>
        <time>2020-01-28T06:46:29Z</time>
      </trkpt>
      <trkpt lat="59.326175" lon="18.075247">
        <ele>11</ele>
        <time>2020-01-28T06:46:30Z</time>
      </trkpt>
      <trkpt lat="59.326195" lon="18.075214">
        <ele>11</ele>
        <time>2020-01-28T06:46:32Z</time>
      </trkpt>
      <trkpt lat="59.326216" lon="18.075181">
        <ele>11</ele>
        <time>2020-01-28T06:46:32Z</time>
      </trkpt>
      <trkpt lat="59.326235" lon="18.075149">
        <ele>11</ele>
        <time>2020-01-28T06:46:33Z</time>
      </trkpt>
      <trkpt lat="59.326256" lon="18.075118">
        <ele>10</ele>
        <time>2020-01-28T06:46:35Z</time>
      </trkpt>
      <trkpt lat="59.326277" lon="18.075092">
        <ele>10</ele>
        <time>2020-01-28T06:46:35Z</time>
      </trkpt>
      <trkpt lat="59.326299" lon="18.075065">
        <ele>9</ele>
        <time>2020-01-28T06:46:36Z</time>
      </trkpt>
      <trkpt lat="59.326325" lon="18.075032">
        <ele>9</ele>
        <time>2020-01-28T06:46:38Z</time>
      </trkpt>
      <trkpt lat="59.32635" lon="18.074998">
        <ele>9</ele>
        <time>2020-01-28T06:46:38Z</time>
      </trkpt>
      <trkpt lat="59.326375" lon="18.074966">
        <ele>9</ele>
        <time>2020-01-28T06:46:39Z</time>
      </trkpt>
      <trkpt lat="59.326399" lon="18.074938">
        <ele>9</ele>
        <time>2020-01-28T06:46:41Z</time>
      </trkpt>
      <trkpt lat="59.326426" lon="18.074907">
        <ele>9</ele>
        <time>2020-01-28T06:46:41Z</time>
      </trkpt>
      <trkpt lat="59.32645" lon="18.074877">
        <ele>9</ele>
        <time>2020-01-28T06:46:42Z</time>
      </trkpt>
      <trkpt lat="59.326474" lon="18.074849">
        <ele>9</ele>
        <time>2020-01-28T06:46:44Z</time>
      </trkpt>
      <trkpt lat="59.326498" lon="18.074824">
        <ele>9</ele>
        <time>2020-01-28T06:46:44Z</time>
      </trkpt>
      <trkpt lat="59.326532" lon="18.074798">
        <ele>10</ele>
        <time>2020-01-28T06:46:46Z</time>
      </trkpt>
      <trkpt lat="59.326567" lon="18.074785">
        <ele>10</ele>
        <time>2020-01-28T06:46:46Z</time>
      </trkpt>
      <trkpt lat="59.326595" lon="18.074767">
        <ele>10</ele>
        <time>2020-01-28T06:46:48Z</time>
      </trkpt>
      <trkpt lat="59.326628" lon="18.074745">
        <ele>10</ele>
        <time>2020-01-28T06:46:48Z</time>
      </trkpt>
      <trkpt lat="59.326655" lon="18.074721">
        <ele>10</ele>
        <time>2020-01-28T06:46:49Z</time>
      </trkpt>
      <trkpt lat="59.326683" lon="18.074699">
        <ele>10</ele>
        <time>2020-01-28T06:46:51Z</time>
      </trkpt>
      <trkpt lat="59.326711" lon="18.074673">
        <ele>10</ele>
        <time>2020-01-28T06:46:51Z</time>
      </trkpt>
      <trkpt lat="59.326736" lon="18.07465">
        <ele>10</ele>
        <time>2020-01-28T06:46:53Z</time>
      </trkpt>
      <trkpt lat="59.32676" lon="18.074627">
        <ele>10</ele>
        <time>2020-01-28T06:46:53Z</time>
      </trkpt>
      <trkpt lat="59.326785" lon="18.074602">
        <ele>10</ele>
        <time>2020-01-28T06:46:55Z</time>
      </trkpt>
      <trkpt lat="59.32681" lon="18.074582">
        <ele>10</ele>
        <time>2020-01-28T06:46:55Z</time>
      </trkpt>
      <trkpt lat="59.326834" lon="18.074563">
        <ele>10</ele>
        <time>2020-01-28T06:46:56Z</time>
      </trkpt>
      <trkpt lat="59.326857" lon="18.074545">
        <ele>10</ele>
        <time>2020-01-28T06:46:58Z</time>
      </trkpt>
      <trkpt lat="59.32688" lon="18.074524">
        <ele>10</ele>
        <time>2020-01-28T06:46:58Z</time>
      </trkpt>
      <trkpt lat="59.326907" lon="18.0745">
        <ele>10</ele>
        <time>2020-01-28T06:47:00Z</time>
      </trkpt>
      <trkpt lat="59.32693" lon="18.074471">
        <ele>10</ele>
        <time>2020-01-28T06:47:00Z</time>
      </trkpt>
      <trkpt lat="59.326954" lon="18.074442">
        <ele>10</ele>
        <time>2020-01-28T06:47:01Z</time>
      </trkpt>
      <trkpt lat="59.326977" lon="18.074413">
        <ele>10</ele>
        <time>2020-01-28T06:47:03Z</time>
      </trkpt>
      <trkpt lat="59.326999" lon="18.074384">
        <ele>10</ele>
        <time>2020-01-28T06:47:03Z</time>
      </trkpt>
      <trkpt lat="59.327021" lon="18.07436">
        <ele>10</ele>
        <time>2020-01-28T06:47:05Z</time>
      </trkpt>
      <trkpt lat="59.327045" lon="18.074332">
        <ele>10</ele>
        <time>2020-01-28T06:47:05Z</time>
      </trkpt>
      <trkpt lat="59.327068" lon="18.074303">
        <ele>10</ele>
        <time>2020-01-28T06:47:07Z</time>
      </trkpt>
      <trkpt lat="59.32709" lon="18.074271">
        <ele>10</ele>
        <time>2020-01-28T06:47:07Z</time>
      </trkpt>
      <trkpt lat="59.327112" lon="18.074242">
        <ele>10</ele>
        <time>2020-01-28T06:47:08Z</time>
      </trkpt>
      <trkpt lat="59.327136" lon="18.074215">
        <ele>10</ele>
        <time>2020-01-28T06:47:10Z</time>
      </trkpt>
      <trkpt lat="59.327161" lon="18.074185">
        <ele>10</ele>
        <time>2020-01-28T06:47:10Z</time>
      </trkpt>
      <trkpt lat="59.327189" lon="18.074149">
        <ele>10</ele>
        <time>2020-01-28T06:47:11Z</time>
      </trkpt>
      <trkpt lat="59.327212" lon="18.074113">
        <ele>10</ele>
        <time>2020-01-28T06:47:13Z</time>
      </trkpt>
      <trkpt lat="59.327239" lon="18.074076">
        <ele>10</ele>
        <time>2020-01-28T06:47:13Z</time>
      </trkpt>
      <trkpt lat="59.32726" lon="18.07404">
        <ele>10</ele>
        <time>2020-01-28T06:47:14Z</time>
      </trkpt>
      <trkpt lat="59.327282" lon="18.074009">
        <ele>10</ele>
        <time>2020-01-28T06:47:16Z</time>
      </trkpt>
      <trkpt lat="59.327305" lon="18.073983">
        <ele>10</ele>
        <time>2020-01-28T06:47:16Z</time>
      </trkpt>
      <trkpt lat="59.327328" lon="18.073958">
        <ele>10</ele>
        <time>2020-01-28T06:47:17Z</time>
      </trkpt>
      <trkpt lat="59.32735" lon="18.073928">
        <ele>9</ele>
        <time>2020-01-28T06:47:19Z</time>
      </trkpt>
      <trkpt lat="59.327373" lon="18.073904">
        <ele>9</ele>
        <time>2020-01-28T06:47:19Z</time>
      </trkpt>
      <trkpt lat="59.327397" lon="18.073872">
        <ele>9</ele>
        <time>2020-01-28T06:47:20Z</time>
      </trkpt>
      <trkpt lat="59.327421" lon="18.073836">
        <ele>9</ele>
        <time>2020-01-28T06:47:21Z</time>
      </trkpt>
      <trkpt lat="59.327448" lon="18.073801">
        <ele>8</ele>
        <time>2020-01-28T06:47:22Z</time>
      </trkpt>
      <trkpt lat="59.327473" lon="18.073769">
        <ele>8</ele>
        <time>2020-01-28T06:47:24Z</time>
      </trkpt>
      <trkpt lat="59.327501" lon="18.073742">
        <ele>7</ele>
        <time>2020-01-28T06:47:24Z</time>
      </trkpt>
      <trkpt lat="59.327529" lon="18.073715">
        <ele>7</ele>
        <time>2020-01-28T06:47:25Z</time>
      </trkpt>
      <trkpt lat="59.32755" lon="18.073687">
        <ele>7</ele>
        <time>2020-01-28T06:47:27Z</time>
      </trkpt>
      <trkpt lat="59.327575" lon="18.073665">
        <ele>7</ele>
        <time>2020-01-28T06:47:27Z</time>
      </trkpt>
      <trkpt lat="59.327597" lon="18.073643">
        <ele>7</ele>
        <time>2020-01-28T06:47:29Z</time>
      </trkpt>
      <trkpt lat="59.327619" lon="18.073613">
        <ele>7</ele>
        <time>2020-01-28T06:47:29Z</time>
      </trkpt>
      <trkpt lat="59.327643" lon="18.073584">
        <ele>7</ele>
        <time>2020-01-28T06:47:31Z</time>
      </trkpt>
      <trkpt lat="59.327669" lon="18.073555">
        <ele>6</ele>
        <time>2020-01-28T06:47:31Z</time>
      </trkpt>
      <trkpt lat="59.327692" lon="18.073528">
        <ele>6</ele>
        <time>2020-01-28T06:47:32Z</time>
      </trkpt>
      <trkpt lat="59.327715" lon="18.073503">
        <ele>6</ele>
        <time>2020-01-28T06:47:34Z</time>
      </trkpt>
      <trkpt lat="59.327737" lon="18.073481">
        <ele>6</ele>
        <time>2020-01-28T06:47:34Z</time>
      </trkpt>
      <trkpt lat="59.327757" lon="18.073454">
        <ele>6</ele>
        <time>2020-01-28T06:47:35Z</time>
      </trkpt>
      <trkpt lat="59.327779" lon="18.073426">
        <ele>6</ele>
        <time>2020-01-28T06:47:37Z</time>
      </trkpt>
      <trkpt lat="59.327801" lon="18.073398">
        <ele>6</ele>
        <time>2020-01-28T06:47:37Z</time>
      </trkpt>
      <trkpt lat="59.327826" lon="18.07337">
        <ele>6</ele>
        <time>2020-01-28T06:47:38Z</time>
      </trkpt>
      <trkpt lat="59.327851" lon="18.073343">
        <ele>6</ele>
        <time>2020-01-28T06:47:39Z</time>
      </trkpt>
      <trkpt lat="59.327876" lon="18.073315">
        <ele>6</ele>
        <time>2020-01-28T06:47:40Z</time>
      </trkpt>
      <trkpt lat="59.327902" lon="18.073287">
        <ele>7</ele>
        <time>2020-01-28T06:47:42Z</time>
      </trkpt>
      <trkpt lat="59.327925" lon="18.073248">
        <ele>7</ele>
        <time>2020-01-28T06:47:43Z</time>
      </trkpt>
      <trkpt lat="59.327952" lon="18.073216">
        <ele>7</ele>
        <time>2020-01-28T06:47:43Z</time>
      </trkpt>
      <trkpt lat="59.327977" lon="18.073189">
        <ele>8</ele>
        <time>2020-01-28T06:47:45Z</time>
      </trkpt>
      <trkpt lat="59.328005" lon="18.073165">
        <ele>8</ele>
        <time>2020-01-28T06:47:45Z</time>
      </trkpt>
      <trkpt lat="59.328033" lon="18.073144">
        <ele>8</ele>
        <time>2020-01-28T06:47:46Z</time>
      </trkpt>
      <trkpt lat="59.328058" lon="18.073136">
        <ele>8</ele>
        <time>2020-01-28T06:47:48Z</time>
      </trkpt>
      <trkpt lat="59.328083" lon="18.073128">
        <ele>8</ele>
        <time>2020-01-28T06:47:49Z</time>
      </trkpt>
      <trkpt lat="59.328108" lon="18.073116">
        <ele>8</ele>
        <time>2020-01-28T06:47:49Z</time>
      </trkpt>
      <trkpt lat="59.328134" lon="18.073106">
        <ele>8</ele>
        <time>2020-01-28T06:47:50Z</time>
      </trkpt>
      <trkpt lat="59.32816" lon="18.073093">
        <ele>8</ele>
        <time>2020-01-28T06:47:52Z</time>
      </trkpt>
      <trkpt lat="59.328187" lon="18.073084">
        <ele>9</ele>
        <time>2020-01-28T06:47:52Z</time>
      </trkpt>
      <trkpt lat="59.328213" lon="18.073079">
        <ele>9</ele>
        <time>2020-01-28T06:47:53Z</time>
      </trkpt>
      <trkpt lat="59.328241" lon="18.073082">
        <ele>9</ele>
        <time>2020-01-28T06:47:55Z</time>
      </trkpt>
      <trkpt lat="59.328265" lon="18.073088">
        <ele>9</ele>
        <time>2020-01-28T06:47:55Z</time>
      </trkpt>
      <trkpt lat="59.328294" lon="18.073089">
        <ele>9</ele>
        <time>2020-01-28T06:47:57Z</time>
      </trkpt>
      <trkpt lat="59.328323" lon="18.073095">
        <ele>9</ele>
        <time>2020-01-28T06:47:57Z</time>
      </trkpt>
      <trkpt lat="59.328351" lon="18.0731">
        <ele>9</ele>
        <time>2020-01-28T06:47:58Z</time>
      </trkpt>
      <trkpt lat="59.328378" lon="18.073108">
        <ele>9</ele>
        <time>2020-01-28T06:48:00Z</time>
      </trkpt>
      <trkpt lat="59.328404" lon="18.07312">
        <ele>10</ele>
        <time>2020-01-28T06:48:01Z</time>
      </trkpt>
      <trkpt lat="59.32843" lon="18.073125">
        <ele>9</ele>
        <time>2020-01-28T06:48:02Z</time>
      </trkpt>
      <trkpt lat="59.328456" lon="18.073133">
        <ele>9</ele>
        <time>2020-01-28T06:48:02Z</time>
      </trkpt>
      <trkpt lat="59.328482" lon="18.073145">
        <ele>9</ele>
        <time>2020-01-28T06:48:04Z</time>
      </trkpt>
      <trkpt lat="59.328509" lon="18.073159">
        <ele>9</ele>
        <time>2020-01-28T06:48:04Z</time>
      </trkpt>
      <trkpt lat="59.328534" lon="18.073167">
        <ele>9</ele>
        <time>2020-01-28T06:48:05Z</time>
      </trkpt>
      <trkpt lat="59.328559" lon="18.073174">
        <ele>9</ele>
        <time>2020-01-28T06:48:07Z</time>
      </trkpt>
      <trkpt lat="59.328584" lon="18.073181">
        <ele>9</ele>
        <time>2020-01-28T06:48:07Z</time>
      </trkpt>
      <trkpt lat="59.32861" lon="18.073187">
        <ele>9</ele>
        <time>2020-01-28T06:48:08Z</time>
      </trkpt>
      <trkpt lat="59.328633" lon="18.073195">
        <ele>9</ele>
        <time>2020-01-28T06:48:10Z</time>
      </trkpt>
      <trkpt lat="59.328656" lon="18.073205">
        <ele>9</ele>
        <time>2020-01-28T06:48:10Z</time>
      </trkpt>
      <trkpt lat="59.32868" lon="18.073215">
        <ele>9</ele>
        <time>2020-01-28T06:48:11Z</time>
      </trkpt>
      <trkpt lat="59.328705" lon="18.073226">
        <ele>9</ele>
        <time>2020-01-28T06:48:13Z</time>
      </trkpt>
      <trkpt lat="59.328733" lon="18.07324">
        <ele>9</ele>
        <time>2020-01-28T06:48:13Z</time>
      </trkpt>
      <trkpt lat="59.32876" lon="18.073244">
        <ele>9</ele>
        <time>2020-01-28T06:48:14Z</time>
      </trkpt>
      <trkpt lat="59.328789" lon="18.073249">
        <ele>9</ele>
        <time>2020-01-28T06:48:16Z</time>
      </trkpt>
      <trkpt lat="59.328821" lon="18.073253">
        <ele>9</ele>
        <time>2020-01-28T06:48:16Z</time>
      </trkpt>
      <trkpt lat="59.32885" lon="18.073263">
        <ele>9</ele>
        <time>2020-01-28T06:48:18Z</time>
      </trkpt>
      <trkpt lat="59.328877" lon="18.073274">
        <ele>9</ele>
        <time>2020-01-28T06:48:18Z</time>
      </trkpt>
      <trkpt lat="59.328903" lon="18.073283">
        <ele>9</ele>
        <time>2020-01-28T06:48:19Z</time>
      </trkpt>
      <trkpt lat="59.328928" lon="18.073291">
        <ele>9</ele>
        <time>2020-01-28T06:48:21Z</time>
      </trkpt>
      <trkpt lat="59.328953" lon="18.0733">
        <ele>9</ele>
        <time>2020-01-28T06:48:21Z</time>
      </trkpt>
      <trkpt lat="59.328979" lon="18.073311">
        <ele>10</ele>
        <time>2020-01-28T06:48:22Z</time>
      </trkpt>
      <trkpt lat="59.329007" lon="18.073314">
        <ele>10</ele>
        <time>2020-01-28T06:48:24Z</time>
      </trkpt>
      <trkpt lat="59.329036" lon="18.073315">
        <ele>10</ele>
        <time>2020-01-28T06:48:24Z</time>
      </trkpt>
      <trkpt lat="59.329061" lon="18.073322">
        <ele>10</ele>
        <time>2020-01-28T06:48:26Z</time>
      </trkpt>
      <trkpt lat="59.329088" lon="18.073327">
        <ele>10</ele>
        <time>2020-01-28T06:48:27Z</time>
      </trkpt>
      <trkpt lat="59.329115" lon="18.073337">
        <ele>10</ele>
        <time>2020-01-28T06:48:27Z</time>
      </trkpt>
      <trkpt lat="59.329141" lon="18.073344">
        <ele>10</ele>
        <time>2020-01-28T06:48:28Z</time>
      </trkpt>
      <trkpt lat="59.329169" lon="18.073353">
        <ele>10</ele>
        <time>2020-01-28T06:48:29Z</time>
      </trkpt>
      <trkpt lat="59.329197" lon="18.073359">
        <ele>10</ele>
        <time>2020-01-28T06:48:30Z</time>
      </trkpt>
      <trkpt lat="59.329226" lon="18.07336">
        <ele>10</ele>
        <time>2020-01-28T06:48:32Z</time>
      </trkpt>
      <trkpt lat="59.329252" lon="18.073366">
        <ele>10</ele>
        <time>2020-01-28T06:48:32Z</time>
      </trkpt>
      <trkpt lat="59.32928" lon="18.073372">
        <ele>10</ele>
        <time>2020-01-28T06:48:33Z</time>
      </trkpt>
      <trkpt lat="59.329306" lon="18.07338">
        <ele>10</ele>
        <time>2020-01-28T06:48:35Z</time>
      </trkpt>
      <trkpt lat="59.32933" lon="18.073385">
        <ele>10</ele>
        <time>2020-01-28T06:48:35Z</time>
      </trkpt>
      <trkpt lat="59.329356" lon="18.073391">
        <ele>10</ele>
        <time>2020-01-28T06:48:36Z</time>
      </trkpt>
      <trkpt lat="59.329382" lon="18.073397">
        <ele>10</ele>
        <time>2020-01-28T06:48:38Z</time>
      </trkpt>
      <trkpt lat="59.329406" lon="18.073407">
        <ele>10</ele>
        <time>2020-01-28T06:48:38Z</time>
      </trkpt>
      <trkpt lat="59.329432" lon="18.073423">
        <ele>10</ele>
        <time>2020-01-28T06:48:40Z</time>
      </trkpt>
      <trkpt lat="59.329458" lon="18.073452">
        <ele>10</ele>
        <time>2020-01-28T06:48:40Z</time>
      </trkpt>
      <trkpt lat="59.329484" lon="18.073477">
        <ele>10</ele>
        <time>2020-01-28T06:48:42Z</time>
      </trkpt>
      <trkpt lat="59.329508" lon="18.073503">
        <ele>10</ele>
        <time>2020-01-28T06:48:42Z</time>
      </trkpt>
      <trkpt lat="59.329532" lon="18.073529">
        <ele>10</ele>
        <time>2020-01-28T06:48:43Z</time>
      </trkpt>
      <trkpt lat="59.329551" lon="18.073547">
        <ele>10</ele>
        <time>2020-01-28T06:48:45Z</time>
      </trkpt>
      <trkpt lat="59.32957" lon="18.073563">
        <ele>10</ele>
        <time>2020-01-28T06:48:45Z</time>
      </trkpt>
      <trkpt lat="59.329594" lon="18.073574">
        <ele>10</ele>
        <time>2020-01-28T06:48:48Z</time>
      </trkpt>
      <trkpt lat="59.329612" lon="18.073566">
        <ele>10</ele>
        <time>2020-01-28T06:48:49Z</time>
      </trkpt>
      <trkpt lat="59.32963" lon="18.073561">
        <ele>10</ele>
        <time>2020-01-28T06:48:52Z</time>
      </trkpt>
      <trkpt lat="59.329649" lon="18.073559">
        <ele>10</ele>
        <time>2020-01-28T06:48:54Z</time>
      </trkpt>
      <trkpt lat="59.329666" lon="18.073546">
        <ele>10</ele>
        <time>2020-01-28T06:48:56Z</time>
      </trkpt>
      <trkpt lat="59.329687" lon="18.073528">
        <ele>10</ele>
        <time>2020-01-28T06:48:56Z</time>
      </trkpt>
      <trkpt lat="59.329709" lon="18.07351">
        <ele>10</ele>
        <time>2020-01-28T06:48:57Z</time>
      </trkpt>
      <trkpt lat="59.329737" lon="18.073487">
        <ele>10</ele>
        <time>2020-01-28T06:48:59Z</time>
      </trkpt>
      <trkpt lat="59.329759" lon="18.073461">
        <ele>10</ele>
        <time>2020-01-28T06:48:59Z</time>
      </trkpt>
      <trkpt lat="59.329785" lon="18.07344">
        <ele>10</ele>
        <time>2020-01-28T06:49:00Z</time>
      </trkpt>
      <trkpt lat="59.329812" lon="18.07342">
        <ele>10</ele>
        <time>2020-01-28T06:49:02Z</time>
      </trkpt>
      <trkpt lat="59.329837" lon="18.073397">
        <ele>11</ele>
        <time>2020-01-28T06:49:02Z</time>
      </trkpt>
      <trkpt lat="59.329937" lon="18.073323">
        <ele>11</ele>
        <time>2020-01-28T06:49:07Z</time>
      </trkpt>
      <trkpt lat="59.330028" lon="18.073236">
        <ele>11</ele>
        <time>2020-01-28T06:49:09Z</time>
      </trkpt>
      <trkpt lat="59.330127" lon="18.073126">
        <ele>11</ele>
        <time>2020-01-28T06:49:13Z</time>
      </trkpt>
      <trkpt lat="59.330212" lon="18.073067">
        <ele>11</ele>
        <time>2020-01-28T06:49:17Z</time>
      </trkpt>
      <trkpt lat="59.330306" lon="18.073003">
        <ele>12</ele>
        <time>2020-01-28T06:49:20Z</time>
      </trkpt>
      <trkpt lat="59.330423" lon="18.072946">
        <ele>12</ele>
        <time>2020-01-28T06:49:24Z</time>
      </trkpt>
      <trkpt lat="59.330512" lon="18.072906">
        <ele>12</ele>
        <time>2020-01-28T06:49:26Z</time>
      </trkpt>
      <trkpt lat="59.330575" lon="18.073035">
        <ele>11</ele>
        <time>2020-01-28T06:49:29Z</time>
      </trkpt>
      <trkpt lat="59.330641" lon="18.073175">
        <ele>11</ele>
        <time>2020-01-28T06:49:32Z</time>
      </trkpt>
      <trkpt lat="59.330674" lon="18.073339">
        <ele>11</ele>
        <time>2020-01-28T06:49:35Z</time>
      </trkpt>
      <trkpt lat="59.330721" lon="18.073507">
        <ele>11</ele>
        <time>2020-01-28T06:49:40Z</time>
      </trkpt>
      <trkpt lat="59.330771" lon="18.073712">
        <ele>12</ele>
        <time>2020-01-28T06:49:43Z</time>
      </trkpt>
      <trkpt lat="59.330796" lon="18.073893">
        <ele>12</ele>
        <time>2020-01-28T06:49:46Z</time>
      </trkpt>
      <trkpt lat="59.330822" lon="18.074117">
        <ele>12</ele>
        <time>2020-01-28T06:49:51Z</time>
      </trkpt>
      <trkpt lat="59.330851" lon="18.074336">
        <ele>12</ele>
        <time>2020-01-28T06:49:54Z</time>
      </trkpt>
      <trkpt lat="59.330925" lon="18.074484">
        <ele>12</ele>
        <time>2020-01-28T06:49:58Z</time>
      </trkpt>
      <trkpt lat="59.331017" lon="18.074571">
        <ele>12</ele>
        <time>2020-01-28T06:50:02Z</time>
      </trkpt>
      <trkpt lat="59.331095" lon="18.074691">
        <ele>12</ele>
        <time>2020-01-28T06:50:06Z</time>
      </trkpt>
      <trkpt lat="59.331182" lon="18.07475">
        <ele>12</ele>
        <time>2020-01-28T06:50:10Z</time>
      </trkpt>
      <trkpt lat="59.331281" lon="18.074775">
        <ele>12</ele>
        <time>2020-01-28T06:50:13Z</time>
      </trkpt>
      <trkpt lat="59.33137" lon="18.074796">
        <ele>12</ele>
        <time>2020-01-28T06:50:17Z</time>
      </trkpt>
      <trkpt lat="59.331463" lon="18.074846">
        <ele>12</ele>
        <time>2020-01-28T06:50:19Z</time>
      </trkpt>
      <trkpt lat="59.33159" lon="18.074883">
        <ele>11</ele>
        <time>2020-01-28T06:50:25Z</time>
      </trkpt>
      <trkpt lat="59.331697" lon="18.074919">
        <ele>11</ele>
        <time>2020-01-28T06:50:25Z</time>
      </trkpt>
      <trkpt lat="59.331801" lon="18.075093">
        <ele>10</ele>
        <time>2020-01-28T06:50:27Z</time>
      </trkpt>
      <trkpt lat="59.331841" lon="18.075319">
        <ele>9</ele>
        <time>2020-01-28T06:50:31Z</time>
      </trkpt>
      <trkpt lat="59.331892" lon="18.075464">
        <ele>9</ele>
        <time>2020-01-28T06:50:34Z</time>
      </trkpt>
      <trkpt lat="59.33194" lon="18.075594">
        <ele>9</ele>
        <time>2020-01-28T06:50:36Z</time>
      </trkpt>
      <trkpt lat="59.331955" lon="18.075635">
        <ele>9</ele>
        <time>2020-01-28T06:50:37Z</time>
      </trkpt>
      <trkpt lat="59.331977" lon="18.075706">
        <ele>9</ele>
        <time>2020-01-28T06:50:39Z</time>
      </trkpt>
      <trkpt lat="59.331999" lon="18.075746">
        <ele>9</ele>
        <time>2020-01-28T06:50:41Z</time>
      </trkpt>
      <trkpt lat="59.332045" lon="18.075834">
        <ele>9</ele>
        <time>2020-01-28T06:50:42Z</time>
      </trkpt>
      <trkpt lat="59.332068" lon="18.07588">
        <ele>9</ele>
        <time>2020-01-28T06:50:44Z</time>
      </trkpt>
      <trkpt lat="59.332085" lon="18.075914">
        <ele>9</ele>
        <time>2020-01-28T06:50:44Z</time>
      </trkpt>
      <trkpt lat="59.332103" lon="18.07596">
        <ele>9</ele>
        <time>2020-01-28T06:50:45Z</time>
      </trkpt>
      <trkpt lat="59.332124" lon="18.076009">
        <ele>9</ele>
        <time>2020-01-28T06:50:47Z</time>
      </trkpt>
      <trkpt lat="59.332148" lon="18.076047">
        <ele>9</ele>
        <time>2020-01-28T06:50:47Z</time>
      </trkpt>
      <trkpt lat="59.332171" lon="18.076087">
        <ele>9</ele>
        <time>2020-01-28T06:50:48Z</time>
      </trkpt>
      <trkpt lat="59.332188" lon="18.07612">
        <ele>9</ele>
        <time>2020-01-28T06:50:50Z</time>
      </trkpt>
      <trkpt lat="59.332205" lon="18.076159">
        <ele>9</ele>
        <time>2020-01-28T06:50:50Z</time>
      </trkpt>
      <trkpt lat="59.332229" lon="18.076207">
        <ele>9</ele>
        <time>2020-01-28T06:50:51Z</time>
      </trkpt>
      <trkpt lat="59.332253" lon="18.076247">
        <ele>9</ele>
        <time>2020-01-28T06:50:53Z</time>
      </trkpt>
      <trkpt lat="59.332274" lon="18.076287">
        <ele>9</ele>
        <time>2020-01-28T06:50:53Z</time>
      </trkpt>
      <trkpt lat="59.332297" lon="18.076327">
        <ele>0</ele>
        <time>2020-01-28T06:50:54Z</time>
      </trkpt>
      <trkpt lat="59.332315" lon="18.07637">
        <ele>9</ele>
        <time>2020-01-28T06:50:56Z</time>
      </trkpt>
      <trkpt lat="59.332352" lon="18.076458">
        <ele>9</ele>
        <time>2020-01-28T06:50:58Z</time>
      </trkpt>
      <trkpt lat="59.332364" lon="18.076504">
        <ele>9</ele>
        <time>2020-01-28T06:50:58Z</time>
      </trkpt>
      <trkpt lat="59.332373" lon="18.076553">
        <ele>9</ele>
        <time>2020-01-28T06:50:59Z</time>
      </trkpt>
      <trkpt lat="59.332384" lon="18.076597">
        <ele>9</ele>
        <time>2020-01-28T06:51:01Z</time>
      </trkpt>
      <trkpt lat="59.332393" lon="18.07663">
        <ele>9</ele>
        <time>2020-01-28T06:51:01Z</time>
      </trkpt>
      <trkpt lat="59.332415" lon="18.07667">
        <ele>9</ele>
        <time>2020-01-28T06:51:04Z</time>
      </trkpt>
      <trkpt lat="59.332431" lon="18.076706">
        <ele>9</ele>
        <time>2020-01-28T06:51:07Z</time>
      </trkpt>
      <trkpt lat="59.332457" lon="18.076772">
        <ele>8</ele>
        <time>2020-01-28T06:51:08Z</time>
      </trkpt>
      <trkpt lat="59.332469" lon="18.076817">
        <ele>9</ele>
        <time>2020-01-28T06:51:09Z</time>
      </trkpt>
      <trkpt lat="59.332478" lon="18.076868">
        <ele>10</ele>
        <time>2020-01-28T06:51:11Z</time>
      </trkpt>
      <trkpt lat="59.332488" lon="18.076916">
        <ele>10</ele>
        <time>2020-01-28T06:51:11Z</time>
      </trkpt>
      <trkpt lat="59.332499" lon="18.076949">
        <ele>10</ele>
        <time>2020-01-28T06:51:13Z</time>
      </trkpt>
      <trkpt lat="59.332511" lon="18.076974">
        <ele>9</ele>
        <time>2020-01-28T06:51:13Z</time>
      </trkpt>
      <trkpt lat="59.332531" lon="18.076995">
        <ele>10</ele>
        <time>2020-01-28T06:51:15Z</time>
      </trkpt>
      <trkpt lat="59.332558" lon="18.077017">
        <ele>10</ele>
        <time>2020-01-28T06:51:16Z</time>
      </trkpt>
      <trkpt lat="59.332585" lon="18.07705">
        <ele>11</ele>
        <time>2020-01-28T06:51:16Z</time>
      </trkpt>
      <trkpt lat="59.33262" lon="18.077088">
        <ele>12</ele>
        <time>2020-01-28T06:51:18Z</time>
      </trkpt>
      <trkpt lat="59.332645" lon="18.07711">
        <ele>12</ele>
        <time>2020-01-28T06:51:18Z</time>
      </trkpt>
      <trkpt lat="59.332665" lon="18.077129">
        <ele>12</ele>
        <time>2020-01-28T06:51:19Z</time>
      </trkpt>
      <trkpt lat="59.332679" lon="18.077154">
        <ele>12</ele>
        <time>2020-01-28T06:51:21Z</time>
      </trkpt>
      <trkpt lat="59.332703" lon="18.077181">
        <ele>12</ele>
        <time>2020-01-28T06:51:21Z</time>
      </trkpt>
      <trkpt lat="59.332767" lon="18.077215">
        <ele>12</ele>
        <time>2020-01-28T06:51:24Z</time>
      </trkpt>
      <trkpt lat="59.332804" lon="18.077244">
        <ele>12</ele>
        <time>2020-01-28T06:51:25Z</time>
      </trkpt>
      <trkpt lat="59.332839" lon="18.077272">
        <ele>12</ele>
        <time>2020-01-28T06:51:26Z</time>
      </trkpt>
      <trkpt lat="59.332869" lon="18.077298">
        <ele>12</ele>
        <time>2020-01-28T06:51:26Z</time>
      </trkpt>
      <trkpt lat="59.3329" lon="18.077321">
        <ele>12</ele>
        <time>2020-01-28T06:51:27Z</time>
      </trkpt>
      <trkpt lat="59.332933" lon="18.077353">
        <ele>11</ele>
        <time>2020-01-28T06:51:29Z</time>
      </trkpt>
      <trkpt lat="59.332967" lon="18.077371">
        <ele>11</ele>
        <time>2020-01-28T06:51:29Z</time>
      </trkpt>
      <trkpt lat="59.332995" lon="18.077405">
        <ele>11</ele>
        <time>2020-01-28T06:51:30Z</time>
      </trkpt>
      <trkpt lat="59.333019" lon="18.077435">
        <ele>11</ele>
        <time>2020-01-28T06:51:32Z</time>
      </trkpt>
      <trkpt lat="59.333036" lon="18.077466">
        <ele>11</ele>
        <time>2020-01-28T06:51:32Z</time>
      </trkpt>
      <trkpt lat="59.333072" lon="18.077535">
        <ele>11</ele>
        <time>2020-01-28T06:51:35Z</time>
      </trkpt>
      <trkpt lat="59.333097" lon="18.077727">
        <ele>11</ele>
        <time>2020-01-28T06:51:45Z</time>
      </trkpt>
      <trkpt lat="59.333208" lon="18.077695">
        <ele>11</ele>
        <time>2020-01-28T06:51:46Z</time>
      </trkpt>
      <trkpt lat="59.333321" lon="18.077737">
        <ele>11</ele>
        <time>2020-01-28T06:51:49Z</time>
      </trkpt>
      <trkpt lat="59.333431" lon="18.07781">
        <ele>11</ele>
        <time>2020-01-28T06:51:53Z</time>
      </trkpt>
      <trkpt lat="59.333523" lon="18.077871">
        <ele>11</ele>
        <time>2020-01-28T06:51:56Z</time>
      </trkpt>
      <trkpt lat="59.333625" lon="18.077919">
        <ele>11</ele>
        <time>2020-01-28T06:51:59Z</time>
      </trkpt>
      <trkpt lat="59.333716" lon="18.077961">
        <ele>11</ele>
        <time>2020-01-28T06:52:03Z</time>
      </trkpt>
      <trkpt lat="59.333812" lon="18.07799">
        <ele>11</ele>
        <time>2020-01-28T06:52:06Z</time>
      </trkpt>
      <trkpt lat="59.333893" lon="18.078122">
        <ele>11</ele>
        <time>2020-01-28T06:52:12Z</time>
      </trkpt>
      <trkpt lat="59.33399" lon="18.078192">
        <ele>11</ele>
        <time>2020-01-28T06:52:15Z</time>
      </trkpt>
      <trkpt lat="59.334098" lon="18.078266">
        <ele>11</ele>
        <time>2020-01-28T06:52:17Z</time>
      </trkpt>
      <trkpt lat="59.334193" lon="18.078343">
        <ele>11</ele>
        <time>2020-01-28T06:52:21Z</time>
      </trkpt>
      <trkpt lat="59.334294" lon="18.07844">
        <ele>11</ele>
        <time>2020-01-28T06:52:25Z</time>
      </trkpt>
      <trkpt lat="59.334394" lon="18.078513">
        <ele>11</ele>
        <time>2020-01-28T06:52:27Z</time>
      </trkpt>
      <trkpt lat="59.334483" lon="18.078584">
        <ele>11</ele>
        <time>2020-01-28T06:52:31Z</time>
      </trkpt>
      <trkpt lat="59.334588" lon="18.078624">
        <ele>11</ele>
        <time>2020-01-28T06:52:34Z</time>
      </trkpt>
      <trkpt lat="59.334682" lon="18.078711">
        <ele>11</ele>
        <time>2020-01-28T06:52:38Z</time>
      </trkpt>
      <trkpt lat="59.334764" lon="18.078782">
        <ele>11</ele>
        <time>2020-01-28T06:52:41Z</time>
      </trkpt>
      <trkpt lat="59.33485" lon="18.078904">
        <ele>11</ele>
        <time>2020-01-28T06:52:44Z</time>
      </trkpt>
      <trkpt lat="59.334954" lon="18.078966">
        <ele>11</ele>
        <time>2020-01-28T06:52:50Z</time>
      </trkpt>
      <trkpt lat="59.33505" lon="18.079036">
        <ele>11</ele>
        <time>2020-01-28T06:52:53Z</time>
      </trkpt>
      <trkpt lat="59.335122" lon="18.07915">
        <ele>11</ele>
        <time>2020-01-28T06:52:56Z</time>
      </trkpt>
      <trkpt lat="59.335185" lon="18.079303">
        <ele>12</ele>
        <time>2020-01-28T06:53:01Z</time>
      </trkpt>
      <trkpt lat="59.335295" lon="18.079347">
        <ele>12</ele>
        <time>2020-01-28T06:53:05Z</time>
      </trkpt>
      <trkpt lat="59.335388" lon="18.079383">
        <ele>12</ele>
        <time>2020-01-28T06:53:07Z</time>
      </trkpt>
      <trkpt lat="59.335489" lon="18.079411">
        <ele>12</ele>
        <time>2020-01-28T06:53:12Z</time>
      </trkpt>
      <trkpt lat="59.335572" lon="18.079485">
        <ele>14</ele>
        <time>2020-01-28T06:53:17Z</time>
      </trkpt>
      <trkpt lat="59.335658" lon="18.079582">
        <ele>18</ele>
        <time>2020-01-28T06:53:21Z</time>
      </trkpt>
      <trkpt lat="59.33577" lon="18.079658">
        <ele>19</ele>
        <time>2020-01-28T06:53:26Z</time>
      </trkpt>
      <trkpt lat="59.33588" lon="18.079726">
        <ele>19</ele>
        <time>2020-01-28T06:53:29Z</time>
      </trkpt>
      <trkpt lat="59.33596" lon="18.079814">
        <ele>20</ele>
        <time>2020-01-28T06:53:32Z</time>
      </trkpt>
      <trkpt lat="59.336046" lon="18.079898">
        <ele>21</ele>
        <time>2020-01-28T06:53:35Z</time>
      </trkpt>
      <trkpt lat="59.336143" lon="18.079963">
        <ele>22</ele>
        <time>2020-01-28T06:53:38Z</time>
      </trkpt>
      <trkpt lat="59.336238" lon="18.080017">
        <ele>23</ele>
        <time>2020-01-28T06:53:43Z</time>
      </trkpt>
      <trkpt lat="59.336327" lon="18.080046">
        <ele>24</ele>
        <time>2020-01-28T06:53:45Z</time>
      </trkpt>
      <trkpt lat="59.33642" lon="18.080082">
        <ele>24</ele>
        <time>2020-01-28T06:53:50Z</time>
      </trkpt>
      <trkpt lat="59.336505" lon="18.080142">
        <ele>23</ele>
        <time>2020-01-28T06:53:53Z</time>
      </trkpt>
      <trkpt lat="59.336609" lon="18.080223">
        <ele>23</ele>
        <time>2020-01-28T06:53:56Z</time>
      </trkpt>
      <trkpt lat="59.336692" lon="18.080335">
        <ele>23</ele>
        <time>2020-01-28T06:54:01Z</time>
      </trkpt>
      <trkpt lat="59.336792" lon="18.080368">
        <ele>24</ele>
        <time>2020-01-28T06:54:06Z</time>
      </trkpt>
      <trkpt lat="59.33688" lon="18.080405">
        <ele>25</ele>
        <time>2020-01-28T06:54:09Z</time>
      </trkpt>
      <trkpt lat="59.336947" lon="18.080567">
        <ele>25</ele>
        <time>2020-01-28T06:54:11Z</time>
      </trkpt>
      <trkpt lat="59.337031" lon="18.080694">
        <ele>25</ele>
        <time>2020-01-28T06:54:15Z</time>
      </trkpt>
      <trkpt lat="59.337123" lon="18.080769">
        <ele>26</ele>
        <time>2020-01-28T06:54:20Z</time>
      </trkpt>
      <trkpt lat="59.337228" lon="18.08082">
        <ele>26</ele>
        <time>2020-01-28T06:54:25Z</time>
      </trkpt>
      <trkpt lat="59.337318" lon="18.080922">
        <ele>27</ele>
        <time>2020-01-28T06:54:31Z</time>
      </trkpt>
      <trkpt lat="59.337411" lon="18.081001">
        <ele>28</ele>
        <time>2020-01-28T06:54:34Z</time>
      </trkpt>
      <trkpt lat="59.337519" lon="18.081082">
        <ele>28</ele>
        <time>2020-01-28T06:54:38Z</time>
      </trkpt>
      <trkpt lat="59.337628" lon="18.081124">
        <ele>28</ele>
        <time>2020-01-28T06:54:42Z</time>
      </trkpt>
      <trkpt lat="59.337733" lon="18.081196">
        <ele>28</ele>
        <time>2020-01-28T06:54:45Z</time>
      </trkpt>
      <trkpt lat="59.337902" lon="18.081319">
        <ele>29</ele>
        <time>2020-01-28T06:54:47Z</time>
      </trkpt>
      <trkpt lat="59.338017" lon="18.081468">
        <ele>30</ele>
        <time>2020-01-28T06:54:49Z</time>
      </trkpt>
      <trkpt lat="59.338113" lon="18.081568">
        <ele>31</ele>
        <time>2020-01-28T06:54:54Z</time>
      </trkpt>
      <trkpt lat="59.338176" lon="18.081701">
        <ele>31</ele>
        <time>2020-01-28T06:55:00Z</time>
      </trkpt>
      <trkpt lat="59.338276" lon="18.081766">
        <ele>32</ele>
        <time>2020-01-28T06:55:03Z</time>
      </trkpt>
      <trkpt lat="59.33839" lon="18.081834">
        <ele>32</ele>
        <time>2020-01-28T06:55:07Z</time>
      </trkpt>
      <trkpt lat="59.338486" lon="18.081911">
        <ele>32</ele>
        <time>2020-01-28T06:55:12Z</time>
      </trkpt>
      <trkpt lat="59.338579" lon="18.081936">
        <ele>32</ele>
        <time>2020-01-28T06:55:17Z</time>
      </trkpt>
      <trkpt lat="59.338679" lon="18.08198">
        <ele>32</ele>
        <time>2020-01-28T06:55:20Z</time>
      </trkpt>
      <trkpt lat="59.338789" lon="18.08205">
        <ele>31</ele>
        <time>2020-01-28T06:55:23Z</time>
      </trkpt>
      <trkpt lat="59.338908" lon="18.082128">
        <ele>30</ele>
        <time>2020-01-28T06:55:26Z</time>
      </trkpt>
      <trkpt lat="59.338991" lon="18.082254">
        <ele>30</ele>
        <time>2020-01-28T06:55:29Z</time>
      </trkpt>
      <trkpt lat="59.339046" lon="18.082406">
        <ele>30</ele>
        <time>2020-01-28T06:55:34Z</time>
      </trkpt>
      <trkpt lat="59.339076" lon="18.082626">
        <ele>31</ele>
        <time>2020-01-28T06:55:39Z</time>
      </trkpt>
      <trkpt lat="59.339066" lon="18.082807">
        <ele>32</ele>
        <time>2020-01-28T06:55:41Z</time>
      </trkpt>
      <trkpt lat="59.339043" lon="18.08303">
        <ele>31</ele>
        <time>2020-01-28T06:55:44Z</time>
      </trkpt>
      <trkpt lat="59.339048" lon="18.083207">
        <ele>31</ele>
        <time>2020-01-28T06:55:47Z</time>
      </trkpt>
      <trkpt lat="59.339049" lon="18.083388">
        <ele>31</ele>
        <time>2020-01-28T06:55:50Z</time>
      </trkpt>
      <trkpt lat="59.339074" lon="18.083559">
        <ele>31</ele>
        <time>2020-01-28T06:55:54Z</time>
      </trkpt>
      <trkpt lat="59.339175" lon="18.083684">
        <ele>31</ele>
        <time>2020-01-28T06:55:58Z</time>
      </trkpt>
      <trkpt lat="59.339249" lon="18.083817">
        <ele>31</ele>
        <time>2020-01-28T06:56:01Z</time>
      </trkpt>
      <trkpt lat="59.339331" lon="18.083903">
        <ele>31</ele>
        <time>2020-01-28T06:56:06Z</time>
      </trkpt>
      <trkpt lat="59.339432" lon="18.083978">
        <ele>30</ele>
        <time>2020-01-28T06:56:11Z</time>
      </trkpt>
      <trkpt lat="59.339528" lon="18.084037">
        <ele>30</ele>
        <time>2020-01-28T06:56:13Z</time>
      </trkpt>
      <trkpt lat="59.339625" lon="18.084141">
        <ele>30</ele>
        <time>2020-01-28T06:56:17Z</time>
      </trkpt>
      <trkpt lat="59.339734" lon="18.084174">
        <ele>30</ele>
        <time>2020-01-28T06:56:22Z</time>
      </trkpt>
      <trkpt lat="59.339852" lon="18.084215">
        <ele>30</ele>
        <time>2020-01-28T06:56:25Z</time>
      </trkpt>
      <trkpt lat="59.339981" lon="18.084258">
        <ele>29</ele>
        <time>2020-01-28T06:56:28Z</time>
      </trkpt>
      <trkpt lat="59.340094" lon="18.084294">
        <ele>29</ele>
        <time>2020-01-28T06:56:31Z</time>
      </trkpt>
      <trkpt lat="59.340186" lon="18.084363">
        <ele>29</ele>
        <time>2020-01-28T06:56:36Z</time>
      </trkpt>
      <trkpt lat="59.340261" lon="18.084514">
        <ele>28</ele>
        <time>2020-01-28T06:56:39Z</time>
      </trkpt>
      <trkpt lat="59.34024" lon="18.084686">
        <ele>28</ele>
        <time>2020-01-28T06:56:41Z</time>
      </trkpt>
      <trkpt lat="59.340203" lon="18.084871">
        <ele>0</ele>
        <time>2020-01-28T06:56:45Z</time>
      </trkpt>
    </trkseg>
  </trk>
</gpx>